<?xml version="1.0" encoding="UTF-8" standalone="no" ?>
<gpx xmlns="http://www.topografix.com/GPX/1/1" xmlns:xsi="http://www.w3.org/2001/XMLSchema-instance" xsi:schemaLocation="http://www.topografix.com/GPX/1/1 http://www.topografix.com/GPX/1/1/gpx.xsd" version="1.1" creator="VisuGPX - https://www.visugpx.com">
  <metadata>
    <name>Cugand 22 km</name>
  </metadata>
  <trk>
    <name><![CDATA[2020-07-28 13:12:53]]></name>
    <extensions>
      <line xmlns="http://www.topografix.com/GPX/gpx_style/0/2">
        <color>0000FF</color>
        <width>4</width>
      </line>
    </extensions>
    <trkseg>
      <trkpt lat="47.0655" lon="-1.25389">
        <ele>57.34</ele>
        <time>2020-07-28T05:50:40Z</time>
      </trkpt>
      <trkpt lat="47.06549" lon="-1.25389">
        <ele>57.34</ele>
        <time>2020-07-28T05:50:41Z</time>
      </trkpt>
      <trkpt lat="47.06549" lon="-1.2539">
        <ele>50.13</ele>
        <time>2020-07-28T05:50:45Z</time>
      </trkpt>
      <trkpt lat="47.06549" lon="-1.2539">
        <ele>50.13</ele>
        <time>2020-07-28T05:50:46Z</time>
      </trkpt>
      <trkpt lat="47.06551" lon="-1.25386">
        <ele>50.13</ele>
        <time>2020-07-28T05:50:52Z</time>
      </trkpt>
      <trkpt lat="47.06549" lon="-1.25363">
        <ele>50.13</ele>
        <time>2020-07-28T05:51:08Z</time>
      </trkpt>
      <trkpt lat="47.06552" lon="-1.25346">
        <ele>50.13</ele>
        <time>2020-07-28T05:51:22Z</time>
      </trkpt>
      <trkpt lat="47.06558" lon="-1.25327">
        <ele>50.13</ele>
        <time>2020-07-28T05:51:35Z</time>
      </trkpt>
      <trkpt lat="47.06552" lon="-1.25293">
        <ele>48.68</ele>
        <time>2020-07-28T05:51:55Z</time>
      </trkpt>
      <trkpt lat="47.06541" lon="-1.2526">
        <ele>48.2</ele>
        <time>2020-07-28T05:52:15Z</time>
      </trkpt>
      <trkpt lat="47.06532" lon="-1.2523">
        <ele>47.72</ele>
        <time>2020-07-28T05:52:33Z</time>
      </trkpt>
      <trkpt lat="47.06519" lon="-1.25209">
        <ele>47.24</ele>
        <time>2020-07-28T05:52:51Z</time>
      </trkpt>
      <trkpt lat="47.06512" lon="-1.25198">
        <ele>46.76</ele>
        <time>2020-07-28T05:52:59Z</time>
      </trkpt>
      <trkpt lat="47.06507" lon="-1.25187">
        <ele>46.28</ele>
        <time>2020-07-28T05:53:06Z</time>
      </trkpt>
      <trkpt lat="47.06501" lon="-1.25169">
        <ele>45.32</ele>
        <time>2020-07-28T05:53:18Z</time>
      </trkpt>
      <trkpt lat="47.06506" lon="-1.25161">
        <ele>44.84</ele>
        <time>2020-07-28T05:53:23Z</time>
      </trkpt>
      <trkpt lat="47.06493" lon="-1.2513">
        <ele>43.4</ele>
        <time>2020-07-28T05:53:42Z</time>
      </trkpt>
      <trkpt lat="47.06486" lon="-1.25113">
        <ele>42.44</ele>
        <time>2020-07-28T05:53:53Z</time>
      </trkpt>
      <trkpt lat="47.06487" lon="-1.25109">
        <ele>42.44</ele>
        <time>2020-07-28T05:53:56Z</time>
      </trkpt>
      <trkpt lat="47.06503" lon="-1.25079">
        <ele>42.44</ele>
        <time>2020-07-28T05:54:15Z</time>
      </trkpt>
      <trkpt lat="47.06517" lon="-1.25055">
        <ele>42.44</ele>
        <time>2020-07-28T05:54:32Z</time>
      </trkpt>
      <trkpt lat="47.06531" lon="-1.25036">
        <ele>43.4</ele>
        <time>2020-07-28T05:54:50Z</time>
      </trkpt>
      <trkpt lat="47.06541" lon="-1.25016">
        <ele>43.4</ele>
        <time>2020-07-28T05:55:06Z</time>
      </trkpt>
      <trkpt lat="47.06545" lon="-1.25016">
        <ele>42.44</ele>
        <time>2020-07-28T05:55:15Z</time>
      </trkpt>
      <trkpt lat="47.06557" lon="-1.25029">
        <ele>39.55</ele>
        <time>2020-07-28T05:55:34Z</time>
      </trkpt>
      <trkpt lat="47.06571" lon="-1.2502">
        <ele>37.15</ele>
        <time>2020-07-28T05:55:50Z</time>
      </trkpt>
      <trkpt lat="47.06574" lon="-1.25017">
        <ele>37.15</ele>
        <time>2020-07-28T05:55:53Z</time>
      </trkpt>
      <trkpt lat="47.06596" lon="-1.24995">
        <ele>35.23</ele>
        <time>2020-07-28T05:56:11Z</time>
      </trkpt>
      <trkpt lat="47.06613" lon="-1.24985">
        <ele>34.26</ele>
        <time>2020-07-28T05:56:28Z</time>
      </trkpt>
      <trkpt lat="47.06629" lon="-1.24977">
        <ele>33.78</ele>
        <time>2020-07-28T05:56:42Z</time>
      </trkpt>
      <trkpt lat="47.06646" lon="-1.24966">
        <ele>33.3</ele>
        <time>2020-07-28T05:56:57Z</time>
      </trkpt>
      <trkpt lat="47.06662" lon="-1.24955">
        <ele>31.86</ele>
        <time>2020-07-28T05:57:11Z</time>
      </trkpt>
      <trkpt lat="47.06685" lon="-1.24937">
        <ele>31.38</ele>
        <time>2020-07-28T05:57:29Z</time>
      </trkpt>
      <trkpt lat="47.067" lon="-1.24929">
        <ele>30.9</ele>
        <time>2020-07-28T05:57:42Z</time>
      </trkpt>
      <trkpt lat="47.06713" lon="-1.24921">
        <ele>30.9</ele>
        <time>2020-07-28T05:57:56Z</time>
      </trkpt>
      <trkpt lat="47.06721" lon="-1.24919">
        <ele>30.42</ele>
        <time>2020-07-28T05:58:04Z</time>
      </trkpt>
      <trkpt lat="47.06725" lon="-1.24919">
        <ele>30.42</ele>
        <time>2020-07-28T05:58:07Z</time>
      </trkpt>
      <trkpt lat="47.06746" lon="-1.24907">
        <ele>29.46</ele>
        <time>2020-07-28T05:58:24Z</time>
      </trkpt>
      <trkpt lat="47.06754" lon="-1.24903">
        <ele>29.46</ele>
        <time>2020-07-28T05:58:32Z</time>
      </trkpt>
      <trkpt lat="47.06776" lon="-1.24905">
        <ele>29.46</ele>
        <time>2020-07-28T05:58:50Z</time>
      </trkpt>
      <trkpt lat="47.06798" lon="-1.24919">
        <ele>28.98</ele>
        <time>2020-07-28T05:59:11Z</time>
      </trkpt>
      <trkpt lat="47.06802" lon="-1.2492">
        <ele>28.98</ele>
        <time>2020-07-28T05:59:13Z</time>
      </trkpt>
      <trkpt lat="47.06817" lon="-1.24935">
        <ele>28.5</ele>
        <time>2020-07-28T05:59:31Z</time>
      </trkpt>
      <trkpt lat="47.06839" lon="-1.24963">
        <ele>28.02</ele>
        <time>2020-07-28T05:59:54Z</time>
      </trkpt>
      <trkpt lat="47.06849" lon="-1.24987">
        <ele>27.05</ele>
        <time>2020-07-28T06:00:13Z</time>
      </trkpt>
      <trkpt lat="47.06865" lon="-1.25012">
        <ele>26.57</ele>
        <time>2020-07-28T06:00:29Z</time>
      </trkpt>
      <trkpt lat="47.06877" lon="-1.2503">
        <ele>26.57</ele>
        <time>2020-07-28T06:00:45Z</time>
      </trkpt>
      <trkpt lat="47.06895" lon="-1.25053">
        <ele>26.09</ele>
        <time>2020-07-28T06:01:02Z</time>
      </trkpt>
      <trkpt lat="47.06899" lon="-1.25059">
        <ele>25.13</ele>
        <time>2020-07-28T06:01:07Z</time>
      </trkpt>
      <trkpt lat="47.06915" lon="-1.25086">
        <ele>25.13</ele>
        <time>2020-07-28T06:01:26Z</time>
      </trkpt>
      <trkpt lat="47.06924" lon="-1.25102">
        <ele>25.13</ele>
        <time>2020-07-28T06:01:38Z</time>
      </trkpt>
      <trkpt lat="47.0694" lon="-1.25129">
        <ele>25.13</ele>
        <time>2020-07-28T06:01:56Z</time>
      </trkpt>
      <trkpt lat="47.06957" lon="-1.25152">
        <ele>25.13</ele>
        <time>2020-07-28T06:02:15Z</time>
      </trkpt>
      <trkpt lat="47.06975" lon="-1.25172">
        <ele>24.65</ele>
        <time>2020-07-28T06:02:32Z</time>
      </trkpt>
      <trkpt lat="47.06994" lon="-1.25184">
        <ele>24.65</ele>
        <time>2020-07-28T06:02:50Z</time>
      </trkpt>
      <trkpt lat="47.07014" lon="-1.25195">
        <ele>24.17</ele>
        <time>2020-07-28T06:03:08Z</time>
      </trkpt>
      <trkpt lat="47.07029" lon="-1.25206">
        <ele>24.17</ele>
        <time>2020-07-28T06:03:23Z</time>
      </trkpt>
      <trkpt lat="47.07046" lon="-1.25216">
        <ele>23.69</ele>
        <time>2020-07-28T06:03:38Z</time>
      </trkpt>
      <trkpt lat="47.0706" lon="-1.25228">
        <ele>23.69</ele>
        <time>2020-07-28T06:03:53Z</time>
      </trkpt>
      <trkpt lat="47.07077" lon="-1.25241">
        <ele>23.69</ele>
        <time>2020-07-28T06:04:08Z</time>
      </trkpt>
      <trkpt lat="47.071" lon="-1.25258">
        <ele>23.69</ele>
        <time>2020-07-28T06:04:25Z</time>
      </trkpt>
      <trkpt lat="47.07113" lon="-1.25275">
        <ele>23.69</ele>
        <time>2020-07-28T06:04:42Z</time>
      </trkpt>
      <trkpt lat="47.07128" lon="-1.2529">
        <ele>23.69</ele>
        <time>2020-07-28T06:04:56Z</time>
      </trkpt>
      <trkpt lat="47.07144" lon="-1.25306">
        <ele>23.69</ele>
        <time>2020-07-28T06:05:11Z</time>
      </trkpt>
      <trkpt lat="47.07159" lon="-1.25322">
        <ele>23.21</ele>
        <time>2020-07-28T06:05:26Z</time>
      </trkpt>
      <trkpt lat="47.07177" lon="-1.25342">
        <ele>23.21</ele>
        <time>2020-07-28T06:05:44Z</time>
      </trkpt>
      <trkpt lat="47.07194" lon="-1.25362">
        <ele>23.21</ele>
        <time>2020-07-28T06:06:00Z</time>
      </trkpt>
      <trkpt lat="47.07209" lon="-1.25381">
        <ele>24.17</ele>
        <time>2020-07-28T06:06:17Z</time>
      </trkpt>
      <trkpt lat="47.07218" lon="-1.2539">
        <ele>24.65</ele>
        <time>2020-07-28T06:06:28Z</time>
      </trkpt>
      <trkpt lat="47.07221" lon="-1.25391">
        <ele>24.65</ele>
        <time>2020-07-28T06:06:31Z</time>
      </trkpt>
      <trkpt lat="47.07241" lon="-1.25383">
        <ele>24.65</ele>
        <time>2020-07-28T06:06:49Z</time>
      </trkpt>
      <trkpt lat="47.07266" lon="-1.2537">
        <ele>24.65</ele>
        <time>2020-07-28T06:07:06Z</time>
      </trkpt>
      <trkpt lat="47.07286" lon="-1.25356">
        <ele>24.65</ele>
        <time>2020-07-28T06:07:24Z</time>
      </trkpt>
      <trkpt lat="47.07293" lon="-1.2535">
        <ele>24.65</ele>
        <time>2020-07-28T06:07:30Z</time>
      </trkpt>
      <trkpt lat="47.07308" lon="-1.2533">
        <ele>24.65</ele>
        <time>2020-07-28T06:07:46Z</time>
      </trkpt>
      <trkpt lat="47.0731" lon="-1.25332">
        <ele>24.65</ele>
        <time>2020-07-28T06:07:51Z</time>
      </trkpt>
      <trkpt lat="47.07315" lon="-1.25335">
        <ele>24.65</ele>
        <time>2020-07-28T06:07:56Z</time>
      </trkpt>
      <trkpt lat="47.07329" lon="-1.25315">
        <ele>24.65</ele>
        <time>2020-07-28T06:08:13Z</time>
      </trkpt>
      <trkpt lat="47.07342" lon="-1.25292">
        <ele>25.13</ele>
        <time>2020-07-28T06:08:29Z</time>
      </trkpt>
      <trkpt lat="47.07355" lon="-1.25265">
        <ele>24.65</ele>
        <time>2020-07-28T06:08:46Z</time>
      </trkpt>
      <trkpt lat="47.07371" lon="-1.25235">
        <ele>25.61</ele>
        <time>2020-07-28T06:09:06Z</time>
      </trkpt>
      <trkpt lat="47.07386" lon="-1.25211">
        <ele>25.61</ele>
        <time>2020-07-28T06:09:22Z</time>
      </trkpt>
      <trkpt lat="47.07403" lon="-1.2518">
        <ele>25.61</ele>
        <time>2020-07-28T06:09:43Z</time>
      </trkpt>
      <trkpt lat="47.07412" lon="-1.25161">
        <ele>25.61</ele>
        <time>2020-07-28T06:09:57Z</time>
      </trkpt>
      <trkpt lat="47.07419" lon="-1.25151">
        <ele>25.61</ele>
        <time>2020-07-28T06:10:05Z</time>
      </trkpt>
      <trkpt lat="47.07422" lon="-1.2515">
        <ele>25.61</ele>
        <time>2020-07-28T06:10:08Z</time>
      </trkpt>
      <trkpt lat="47.07426" lon="-1.25157">
        <ele>25.61</ele>
        <time>2020-07-28T06:10:13Z</time>
      </trkpt>
      <trkpt lat="47.0743" lon="-1.2516">
        <ele>24.65</ele>
        <time>2020-07-28T06:10:16Z</time>
      </trkpt>
      <trkpt lat="47.07432" lon="-1.25161">
        <ele>23.69</ele>
        <time>2020-07-28T06:10:18Z</time>
      </trkpt>
      <trkpt lat="47.07453" lon="-1.25165">
        <ele>21.77</ele>
        <time>2020-07-28T06:10:35Z</time>
      </trkpt>
      <trkpt lat="47.07469" lon="-1.25184">
        <ele>21.77</ele>
        <time>2020-07-28T06:10:51Z</time>
      </trkpt>
      <trkpt lat="47.07489" lon="-1.25195">
        <ele>23.21</ele>
        <time>2020-07-28T06:11:09Z</time>
      </trkpt>
      <trkpt lat="47.07506" lon="-1.25208">
        <ele>23.69</ele>
        <time>2020-07-28T06:11:26Z</time>
      </trkpt>
      <trkpt lat="47.07525" lon="-1.25229">
        <ele>23.69</ele>
        <time>2020-07-28T06:11:45Z</time>
      </trkpt>
      <trkpt lat="47.07544" lon="-1.25252">
        <ele>23.69</ele>
        <time>2020-07-28T06:12:05Z</time>
      </trkpt>
      <trkpt lat="47.07562" lon="-1.25276">
        <ele>24.65</ele>
        <time>2020-07-28T06:12:26Z</time>
      </trkpt>
      <trkpt lat="47.0757" lon="-1.253">
        <ele>26.57</ele>
        <time>2020-07-28T06:12:43Z</time>
      </trkpt>
      <trkpt lat="47.07561" lon="-1.25325">
        <ele>27.05</ele>
        <time>2020-07-28T06:13:01Z</time>
      </trkpt>
      <trkpt lat="47.0755" lon="-1.25353">
        <ele>27.53</ele>
        <time>2020-07-28T06:13:20Z</time>
      </trkpt>
      <trkpt lat="47.07538" lon="-1.25386">
        <ele>28.02</ele>
        <time>2020-07-28T06:13:41Z</time>
      </trkpt>
      <trkpt lat="47.07543" lon="-1.25416">
        <ele>28.02</ele>
        <time>2020-07-28T06:13:58Z</time>
      </trkpt>
      <trkpt lat="47.07547" lon="-1.25447">
        <ele>28.02</ele>
        <time>2020-07-28T06:14:15Z</time>
      </trkpt>
      <trkpt lat="47.07554" lon="-1.25473">
        <ele>28.98</ele>
        <time>2020-07-28T06:14:32Z</time>
      </trkpt>
      <trkpt lat="47.07555" lon="-1.25479">
        <ele>28.98</ele>
        <time>2020-07-28T06:14:36Z</time>
      </trkpt>
      <trkpt lat="47.0757" lon="-1.25507">
        <ele>29.46</ele>
        <time>2020-07-28T06:14:55Z</time>
      </trkpt>
      <trkpt lat="47.07591" lon="-1.25531">
        <ele>30.9</ele>
        <time>2020-07-28T06:15:15Z</time>
      </trkpt>
      <trkpt lat="47.07602" lon="-1.25563">
        <ele>30.9</ele>
        <time>2020-07-28T06:15:35Z</time>
      </trkpt>
      <trkpt lat="47.07597" lon="-1.25591">
        <ele>30.9</ele>
        <time>2020-07-28T06:15:52Z</time>
      </trkpt>
      <trkpt lat="47.07595" lon="-1.25621">
        <ele>29.94</ele>
        <time>2020-07-28T06:16:10Z</time>
      </trkpt>
      <trkpt lat="47.0759" lon="-1.25659">
        <ele>29.94</ele>
        <time>2020-07-28T06:16:29Z</time>
      </trkpt>
      <trkpt lat="47.07585" lon="-1.25693">
        <ele>29.94</ele>
        <time>2020-07-28T06:16:47Z</time>
      </trkpt>
      <trkpt lat="47.07581" lon="-1.25723">
        <ele>29.94</ele>
        <time>2020-07-28T06:17:04Z</time>
      </trkpt>
      <trkpt lat="47.07584" lon="-1.25757">
        <ele>29.94</ele>
        <time>2020-07-28T06:17:22Z</time>
      </trkpt>
      <trkpt lat="47.07591" lon="-1.25785">
        <ele>29.46</ele>
        <time>2020-07-28T06:17:39Z</time>
      </trkpt>
      <trkpt lat="47.07603" lon="-1.25811">
        <ele>28.98</ele>
        <time>2020-07-28T06:17:56Z</time>
      </trkpt>
      <trkpt lat="47.07617" lon="-1.2584">
        <ele>28.02</ele>
        <time>2020-07-28T06:18:15Z</time>
      </trkpt>
      <trkpt lat="47.0763" lon="-1.25869">
        <ele>27.53</ele>
        <time>2020-07-28T06:18:35Z</time>
      </trkpt>
      <trkpt lat="47.07648" lon="-1.25903">
        <ele>26.09</ele>
        <time>2020-07-28T06:18:56Z</time>
      </trkpt>
      <trkpt lat="47.07666" lon="-1.25929">
        <ele>25.13</ele>
        <time>2020-07-28T06:19:16Z</time>
      </trkpt>
      <trkpt lat="47.07685" lon="-1.25946">
        <ele>24.17</ele>
        <time>2020-07-28T06:19:34Z</time>
      </trkpt>
      <trkpt lat="47.077" lon="-1.25954">
        <ele>22.73</ele>
        <time>2020-07-28T06:19:50Z</time>
      </trkpt>
      <trkpt lat="47.07716" lon="-1.25966">
        <ele>21.77</ele>
        <time>2020-07-28T06:20:07Z</time>
      </trkpt>
      <trkpt lat="47.07726" lon="-1.25989">
        <ele>19.84</ele>
        <time>2020-07-28T06:20:23Z</time>
      </trkpt>
      <trkpt lat="47.07734" lon="-1.25997">
        <ele>18.88</ele>
        <time>2020-07-28T06:20:34Z</time>
      </trkpt>
      <trkpt lat="47.07738" lon="-1.25999">
        <ele>17.92</ele>
        <time>2020-07-28T06:20:39Z</time>
      </trkpt>
      <trkpt lat="47.07753" lon="-1.25998">
        <ele>17.92</ele>
        <time>2020-07-28T06:20:56Z</time>
      </trkpt>
      <trkpt lat="47.07769" lon="-1.26007">
        <ele>16.96</ele>
        <time>2020-07-28T06:21:13Z</time>
      </trkpt>
      <trkpt lat="47.0779" lon="-1.26005">
        <ele>16.48</ele>
        <time>2020-07-28T06:21:32Z</time>
      </trkpt>
      <trkpt lat="47.07804" lon="-1.25999">
        <ele>17.92</ele>
        <time>2020-07-28T06:21:49Z</time>
      </trkpt>
      <trkpt lat="47.07813" lon="-1.25994">
        <ele>17.44</ele>
        <time>2020-07-28T06:22:10Z</time>
      </trkpt>
      <trkpt lat="47.07827" lon="-1.25988">
        <ele>17.92</ele>
        <time>2020-07-28T06:22:25Z</time>
      </trkpt>
      <trkpt lat="47.0784" lon="-1.25988">
        <ele>17.92</ele>
        <time>2020-07-28T06:22:38Z</time>
      </trkpt>
      <trkpt lat="47.07863" lon="-1.2599">
        <ele>18.4</ele>
        <time>2020-07-28T06:22:56Z</time>
      </trkpt>
      <trkpt lat="47.07894" lon="-1.25986">
        <ele>18.88</ele>
        <time>2020-07-28T06:23:15Z</time>
      </trkpt>
      <trkpt lat="47.07918" lon="-1.25984">
        <ele>19.36</ele>
        <time>2020-07-28T06:23:34Z</time>
      </trkpt>
      <trkpt lat="47.07938" lon="-1.25979">
        <ele>21.29</ele>
        <time>2020-07-28T06:23:49Z</time>
      </trkpt>
      <trkpt lat="47.07946" lon="-1.26003">
        <ele>22.73</ele>
        <time>2020-07-28T06:24:05Z</time>
      </trkpt>
      <trkpt lat="47.07955" lon="-1.26025">
        <ele>24.17</ele>
        <time>2020-07-28T06:24:22Z</time>
      </trkpt>
      <trkpt lat="47.07962" lon="-1.26058">
        <ele>26.09</ele>
        <time>2020-07-28T06:24:42Z</time>
      </trkpt>
      <trkpt lat="47.07961" lon="-1.26077">
        <ele>26.09</ele>
        <time>2020-07-28T06:25:03Z</time>
      </trkpt>
      <trkpt lat="47.07961" lon="-1.26085">
        <ele>24.65</ele>
        <time>2020-07-28T06:25:08Z</time>
      </trkpt>
      <trkpt lat="47.07962" lon="-1.26116">
        <ele>22.73</ele>
        <time>2020-07-28T06:25:29Z</time>
      </trkpt>
      <trkpt lat="47.07963" lon="-1.26139">
        <ele>19.84</ele>
        <time>2020-07-28T06:25:43Z</time>
      </trkpt>
      <trkpt lat="47.07962" lon="-1.26141">
        <ele>19.84</ele>
        <time>2020-07-28T06:25:44Z</time>
      </trkpt>
      <trkpt lat="47.07967" lon="-1.26156">
        <ele>17.92</ele>
        <time>2020-07-28T06:25:57Z</time>
      </trkpt>
      <trkpt lat="47.07977" lon="-1.26164">
        <ele>16.96</ele>
        <time>2020-07-28T06:26:10Z</time>
      </trkpt>
      <trkpt lat="47.07983" lon="-1.26187">
        <ele>15.04</ele>
        <time>2020-07-28T06:26:29Z</time>
      </trkpt>
      <trkpt lat="47.07984" lon="-1.26203">
        <ele>14.56</ele>
        <time>2020-07-28T06:26:47Z</time>
      </trkpt>
      <trkpt lat="47.07987" lon="-1.2621">
        <ele>14.56</ele>
        <time>2020-07-28T06:27:15Z</time>
      </trkpt>
      <trkpt lat="47.07989" lon="-1.2621">
        <ele>14.08</ele>
        <time>2020-07-28T06:27:37Z</time>
      </trkpt>
      <trkpt lat="47.07998" lon="-1.26211">
        <ele>14.08</ele>
        <time>2020-07-28T06:27:51Z</time>
      </trkpt>
      <trkpt lat="47.07995" lon="-1.26218">
        <ele>14.08</ele>
        <time>2020-07-28T06:28:09Z</time>
      </trkpt>
      <trkpt lat="47.08006" lon="-1.26233">
        <ele>12.63</ele>
        <time>2020-07-28T06:28:24Z</time>
      </trkpt>
      <trkpt lat="47.08004" lon="-1.26236">
        <ele>12.63</ele>
        <time>2020-07-28T06:28:50Z</time>
      </trkpt>
      <trkpt lat="47.0801" lon="-1.2623">
        <ele>12.15</ele>
        <time>2020-07-28T06:29:06Z</time>
      </trkpt>
      <trkpt lat="47.08021" lon="-1.26254">
        <ele>12.15</ele>
        <time>2020-07-28T06:29:29Z</time>
      </trkpt>
      <trkpt lat="47.08027" lon="-1.26264">
        <ele>12.15</ele>
        <time>2020-07-28T06:29:50Z</time>
      </trkpt>
      <trkpt lat="47.08041" lon="-1.26272">
        <ele>11.67</ele>
        <time>2020-07-28T06:30:04Z</time>
      </trkpt>
      <trkpt lat="47.08061" lon="-1.26285">
        <ele>11.67</ele>
        <time>2020-07-28T06:30:24Z</time>
      </trkpt>
      <trkpt lat="47.08061" lon="-1.26295">
        <ele>11.67</ele>
        <time>2020-07-28T06:30:48Z</time>
      </trkpt>
      <trkpt lat="47.0807" lon="-1.26299">
        <ele>11.67</ele>
        <time>2020-07-28T06:31:08Z</time>
      </trkpt>
      <trkpt lat="47.08079" lon="-1.26307">
        <ele>11.67</ele>
        <time>2020-07-28T06:31:23Z</time>
      </trkpt>
      <trkpt lat="47.08086" lon="-1.26312">
        <ele>11.67</ele>
        <time>2020-07-28T06:31:56Z</time>
      </trkpt>
      <trkpt lat="47.08094" lon="-1.26317">
        <ele>11.67</ele>
        <time>2020-07-28T06:32:09Z</time>
      </trkpt>
      <trkpt lat="47.08105" lon="-1.26329">
        <ele>11.67</ele>
        <time>2020-07-28T06:32:26Z</time>
      </trkpt>
      <trkpt lat="47.08124" lon="-1.26341">
        <ele>11.67</ele>
        <time>2020-07-28T06:32:40Z</time>
      </trkpt>
      <trkpt lat="47.08127" lon="-1.26352">
        <ele>11.67</ele>
        <time>2020-07-28T06:32:54Z</time>
      </trkpt>
      <trkpt lat="47.08135" lon="-1.26358">
        <ele>11.67</ele>
        <time>2020-07-28T06:33:14Z</time>
      </trkpt>
      <trkpt lat="47.08141" lon="-1.26356">
        <ele>11.67</ele>
        <time>2020-07-28T06:33:38Z</time>
      </trkpt>
      <trkpt lat="47.08146" lon="-1.26359">
        <ele>11.67</ele>
        <time>2020-07-28T06:33:57Z</time>
      </trkpt>
      <trkpt lat="47.08147" lon="-1.2636">
        <ele>11.19</ele>
        <time>2020-07-28T06:34:35Z</time>
      </trkpt>
      <trkpt lat="47.08149" lon="-1.26361">
        <ele>11.19</ele>
        <time>2020-07-28T06:35:00Z</time>
      </trkpt>
      <trkpt lat="47.08158" lon="-1.26373">
        <ele>11.67</ele>
        <time>2020-07-28T06:35:18Z</time>
      </trkpt>
      <trkpt lat="47.08166" lon="-1.26384">
        <ele>11.67</ele>
        <time>2020-07-28T06:35:32Z</time>
      </trkpt>
      <trkpt lat="47.0817" lon="-1.26388">
        <ele>11.19</ele>
        <time>2020-07-28T06:35:37Z</time>
      </trkpt>
      <trkpt lat="47.08182" lon="-1.264">
        <ele>11.19</ele>
        <time>2020-07-28T06:35:51Z</time>
      </trkpt>
      <trkpt lat="47.08193" lon="-1.26411">
        <ele>10.71</ele>
        <time>2020-07-28T06:36:04Z</time>
      </trkpt>
      <trkpt lat="47.08202" lon="-1.2642">
        <ele>9.27</ele>
        <time>2020-07-28T06:36:17Z</time>
      </trkpt>
      <trkpt lat="47.08216" lon="-1.26424">
        <ele>9.27</ele>
        <time>2020-07-28T06:36:28Z</time>
      </trkpt>
      <trkpt lat="47.08236" lon="-1.26435">
        <ele>9.27</ele>
        <time>2020-07-28T06:36:46Z</time>
      </trkpt>
      <trkpt lat="47.08241" lon="-1.2644">
        <ele>9.27</ele>
        <time>2020-07-28T06:36:52Z</time>
      </trkpt>
      <trkpt lat="47.08247" lon="-1.26447">
        <ele>9.27</ele>
        <time>2020-07-28T06:36:58Z</time>
      </trkpt>
      <trkpt lat="47.08258" lon="-1.26461">
        <ele>10.23</ele>
        <time>2020-07-28T06:37:12Z</time>
      </trkpt>
      <trkpt lat="47.0827" lon="-1.26476">
        <ele>10.23</ele>
        <time>2020-07-28T06:37:26Z</time>
      </trkpt>
      <trkpt lat="47.0829" lon="-1.26495">
        <ele>10.71</ele>
        <time>2020-07-28T06:37:42Z</time>
      </trkpt>
      <trkpt lat="47.08299" lon="-1.26519">
        <ele>10.23</ele>
        <time>2020-07-28T06:38:00Z</time>
      </trkpt>
      <trkpt lat="47.08303" lon="-1.26527">
        <ele>10.23</ele>
        <time>2020-07-28T06:38:05Z</time>
      </trkpt>
      <trkpt lat="47.08312" lon="-1.26542">
        <ele>10.23</ele>
        <time>2020-07-28T06:38:18Z</time>
      </trkpt>
      <trkpt lat="47.08321" lon="-1.26552">
        <ele>11.67</ele>
        <time>2020-07-28T06:38:32Z</time>
      </trkpt>
      <trkpt lat="47.08334" lon="-1.26553">
        <ele>12.15</ele>
        <time>2020-07-28T06:38:46Z</time>
      </trkpt>
      <trkpt lat="47.08355" lon="-1.26554">
        <ele>14.08</ele>
        <time>2020-07-28T06:39:05Z</time>
      </trkpt>
      <trkpt lat="47.08362" lon="-1.26558">
        <ele>15.04</ele>
        <time>2020-07-28T06:39:09Z</time>
      </trkpt>
      <trkpt lat="47.0838" lon="-1.26574">
        <ele>16.96</ele>
        <time>2020-07-28T06:39:28Z</time>
      </trkpt>
      <trkpt lat="47.08396" lon="-1.26587">
        <ele>19.36</ele>
        <time>2020-07-28T06:39:43Z</time>
      </trkpt>
      <trkpt lat="47.08408" lon="-1.26605">
        <ele>20.81</ele>
        <time>2020-07-28T06:40:00Z</time>
      </trkpt>
      <trkpt lat="47.08418" lon="-1.26616">
        <ele>21.77</ele>
        <time>2020-07-28T06:40:18Z</time>
      </trkpt>
      <trkpt lat="47.08432" lon="-1.26627">
        <ele>23.21</ele>
        <time>2020-07-28T06:40:40Z</time>
      </trkpt>
      <trkpt lat="47.08447" lon="-1.26639">
        <ele>24.17</ele>
        <time>2020-07-28T06:40:57Z</time>
      </trkpt>
      <trkpt lat="47.08463" lon="-1.26652">
        <ele>25.61</ele>
        <time>2020-07-28T06:41:13Z</time>
      </trkpt>
      <trkpt lat="47.08479" lon="-1.26658">
        <ele>27.05</ele>
        <time>2020-07-28T06:41:30Z</time>
      </trkpt>
      <trkpt lat="47.08481" lon="-1.26657">
        <ele>27.53</ele>
        <time>2020-07-28T06:41:33Z</time>
      </trkpt>
      <trkpt lat="47.08491" lon="-1.26651">
        <ele>29.94</ele>
        <time>2020-07-28T06:41:46Z</time>
      </trkpt>
      <trkpt lat="47.08507" lon="-1.26634">
        <ele>30.9</ele>
        <time>2020-07-28T06:42:05Z</time>
      </trkpt>
      <trkpt lat="47.08519" lon="-1.26622">
        <ele>31.86</ele>
        <time>2020-07-28T06:42:18Z</time>
      </trkpt>
      <trkpt lat="47.08533" lon="-1.26608">
        <ele>33.3</ele>
        <time>2020-07-28T06:42:29Z</time>
      </trkpt>
      <trkpt lat="47.08555" lon="-1.26593">
        <ele>34.26</ele>
        <time>2020-07-28T06:42:51Z</time>
      </trkpt>
      <trkpt lat="47.08563" lon="-1.26566">
        <ele>34.26</ele>
        <time>2020-07-28T06:43:06Z</time>
      </trkpt>
      <trkpt lat="47.08563" lon="-1.2656">
        <ele>34.26</ele>
        <time>2020-07-28T06:43:10Z</time>
      </trkpt>
      <trkpt lat="47.08569" lon="-1.26553">
        <ele>34.26</ele>
        <time>2020-07-28T06:43:15Z</time>
      </trkpt>
      <trkpt lat="47.08574" lon="-1.26548">
        <ele>34.26</ele>
        <time>2020-07-28T06:43:20Z</time>
      </trkpt>
      <trkpt lat="47.08592" lon="-1.2654">
        <ele>36.19</ele>
        <time>2020-07-28T06:43:35Z</time>
      </trkpt>
      <trkpt lat="47.08593" lon="-1.26539">
        <ele>34.74</ele>
        <time>2020-07-28T06:43:36Z</time>
      </trkpt>
      <trkpt lat="47.08596" lon="-1.2654">
        <ele>34.26</ele>
        <time>2020-07-28T06:43:39Z</time>
      </trkpt>
      <trkpt lat="47.08601" lon="-1.26545">
        <ele>34.26</ele>
        <time>2020-07-28T06:43:44Z</time>
      </trkpt>
      <trkpt lat="47.08605" lon="-1.26555">
        <ele>33.78</ele>
        <time>2020-07-28T06:43:51Z</time>
      </trkpt>
      <trkpt lat="47.08606" lon="-1.26564">
        <ele>33.78</ele>
        <time>2020-07-28T06:43:55Z</time>
      </trkpt>
      <trkpt lat="47.08606" lon="-1.26602">
        <ele>33.3</ele>
        <time>2020-07-28T06:44:16Z</time>
      </trkpt>
      <trkpt lat="47.08612" lon="-1.26645">
        <ele>32.34</ele>
        <time>2020-07-28T06:44:40Z</time>
      </trkpt>
      <trkpt lat="47.08624" lon="-1.26679">
        <ele>32.82</ele>
        <time>2020-07-28T06:45:03Z</time>
      </trkpt>
      <trkpt lat="47.08635" lon="-1.26719">
        <ele>31.38</ele>
        <time>2020-07-28T06:45:28Z</time>
      </trkpt>
      <trkpt lat="47.08648" lon="-1.26752">
        <ele>33.3</ele>
        <time>2020-07-28T06:45:50Z</time>
      </trkpt>
      <trkpt lat="47.08668" lon="-1.26758">
        <ele>33.3</ele>
        <time>2020-07-28T06:46:09Z</time>
      </trkpt>
      <trkpt lat="47.0869" lon="-1.26759">
        <ele>34.26</ele>
        <time>2020-07-28T06:46:27Z</time>
      </trkpt>
      <trkpt lat="47.08695" lon="-1.26757">
        <ele>34.26</ele>
        <time>2020-07-28T06:46:32Z</time>
      </trkpt>
      <trkpt lat="47.08713" lon="-1.26724">
        <ele>34.26</ele>
        <time>2020-07-28T06:46:55Z</time>
      </trkpt>
      <trkpt lat="47.08726" lon="-1.26698">
        <ele>34.26</ele>
        <time>2020-07-28T06:47:12Z</time>
      </trkpt>
      <trkpt lat="47.08743" lon="-1.2667">
        <ele>34.26</ele>
        <time>2020-07-28T06:47:31Z</time>
      </trkpt>
      <trkpt lat="47.08756" lon="-1.26652">
        <ele>34.74</ele>
        <time>2020-07-28T06:47:49Z</time>
      </trkpt>
      <trkpt lat="47.0877" lon="-1.26641">
        <ele>33.3</ele>
        <time>2020-07-28T06:48:04Z</time>
      </trkpt>
      <trkpt lat="47.08785" lon="-1.26613">
        <ele>33.3</ele>
        <time>2020-07-28T06:48:23Z</time>
      </trkpt>
      <trkpt lat="47.08803" lon="-1.2659">
        <ele>33.3</ele>
        <time>2020-07-28T06:48:41Z</time>
      </trkpt>
      <trkpt lat="47.08821" lon="-1.26564">
        <ele>33.3</ele>
        <time>2020-07-28T06:49:00Z</time>
      </trkpt>
      <trkpt lat="47.08844" lon="-1.26535">
        <ele>33.3</ele>
        <time>2020-07-28T06:49:23Z</time>
      </trkpt>
      <trkpt lat="47.08862" lon="-1.26511">
        <ele>33.3</ele>
        <time>2020-07-28T06:49:44Z</time>
      </trkpt>
      <trkpt lat="47.08876" lon="-1.2648">
        <ele>33.78</ele>
        <time>2020-07-28T06:50:05Z</time>
      </trkpt>
      <trkpt lat="47.08891" lon="-1.2645">
        <ele>33.78</ele>
        <time>2020-07-28T06:50:26Z</time>
      </trkpt>
      <trkpt lat="47.08903" lon="-1.26433">
        <ele>33.78</ele>
        <time>2020-07-28T06:50:40Z</time>
      </trkpt>
      <trkpt lat="47.08923" lon="-1.26398">
        <ele>33.78</ele>
        <time>2020-07-28T06:51:05Z</time>
      </trkpt>
      <trkpt lat="47.08932" lon="-1.26372">
        <ele>35.23</ele>
        <time>2020-07-28T06:51:27Z</time>
      </trkpt>
      <trkpt lat="47.0894" lon="-1.26345">
        <ele>35.71</ele>
        <time>2020-07-28T06:51:44Z</time>
      </trkpt>
      <trkpt lat="47.08948" lon="-1.26306">
        <ele>34.74</ele>
        <time>2020-07-28T06:52:05Z</time>
      </trkpt>
      <trkpt lat="47.08957" lon="-1.26276">
        <ele>32.82</ele>
        <time>2020-07-28T06:52:23Z</time>
      </trkpt>
      <trkpt lat="47.08964" lon="-1.26248">
        <ele>31.38</ele>
        <time>2020-07-28T06:52:40Z</time>
      </trkpt>
      <trkpt lat="47.08969" lon="-1.26225">
        <ele>29.46</ele>
        <time>2020-07-28T06:52:56Z</time>
      </trkpt>
      <trkpt lat="47.08974" lon="-1.26182">
        <ele>27.05</ele>
        <time>2020-07-28T06:53:20Z</time>
      </trkpt>
      <trkpt lat="47.08978" lon="-1.26161">
        <ele>27.05</ele>
        <time>2020-07-28T06:53:35Z</time>
      </trkpt>
      <trkpt lat="47.0898" lon="-1.26158">
        <ele>27.05</ele>
        <time>2020-07-28T06:53:37Z</time>
      </trkpt>
      <trkpt lat="47.0899" lon="-1.26131">
        <ele>26.57</ele>
        <time>2020-07-28T06:53:54Z</time>
      </trkpt>
      <trkpt lat="47.09001" lon="-1.26101">
        <ele>26.09</ele>
        <time>2020-07-28T06:54:12Z</time>
      </trkpt>
      <trkpt lat="47.09002" lon="-1.26099">
        <ele>26.09</ele>
        <time>2020-07-28T06:54:13Z</time>
      </trkpt>
      <trkpt lat="47.09013" lon="-1.26073">
        <ele>26.09</ele>
        <time>2020-07-28T06:54:31Z</time>
      </trkpt>
      <trkpt lat="47.09026" lon="-1.26043">
        <ele>26.09</ele>
        <time>2020-07-28T06:54:50Z</time>
      </trkpt>
      <trkpt lat="47.09039" lon="-1.26011">
        <ele>26.09</ele>
        <time>2020-07-28T06:55:09Z</time>
      </trkpt>
      <trkpt lat="47.09051" lon="-1.25978">
        <ele>26.09</ele>
        <time>2020-07-28T06:55:29Z</time>
      </trkpt>
      <trkpt lat="47.09058" lon="-1.25952">
        <ele>26.09</ele>
        <time>2020-07-28T06:55:45Z</time>
      </trkpt>
      <trkpt lat="47.09059" lon="-1.25947">
        <ele>26.09</ele>
        <time>2020-07-28T06:55:48Z</time>
      </trkpt>
      <trkpt lat="47.09066" lon="-1.25916">
        <ele>25.61</ele>
        <time>2020-07-28T06:56:05Z</time>
      </trkpt>
      <trkpt lat="47.09067" lon="-1.25908">
        <ele>25.13</ele>
        <time>2020-07-28T06:56:10Z</time>
      </trkpt>
      <trkpt lat="47.09069" lon="-1.25899">
        <ele>25.13</ele>
        <time>2020-07-28T06:56:15Z</time>
      </trkpt>
      <trkpt lat="47.09081" lon="-1.25865">
        <ele>23.69</ele>
        <time>2020-07-28T06:56:34Z</time>
      </trkpt>
      <trkpt lat="47.09091" lon="-1.25837">
        <ele>21.77</ele>
        <time>2020-07-28T06:56:52Z</time>
      </trkpt>
      <trkpt lat="47.091" lon="-1.25817">
        <ele>21.77</ele>
        <time>2020-07-28T06:57:08Z</time>
      </trkpt>
      <trkpt lat="47.09116" lon="-1.25783">
        <ele>21.77</ele>
        <time>2020-07-28T06:57:28Z</time>
      </trkpt>
      <trkpt lat="47.0913" lon="-1.25754">
        <ele>21.77</ele>
        <time>2020-07-28T06:57:46Z</time>
      </trkpt>
      <trkpt lat="47.09146" lon="-1.25727">
        <ele>21.77</ele>
        <time>2020-07-28T06:58:06Z</time>
      </trkpt>
      <trkpt lat="47.09153" lon="-1.25718">
        <ele>20.81</ele>
        <time>2020-07-28T06:58:22Z</time>
      </trkpt>
      <trkpt lat="47.09154" lon="-1.25711">
        <ele>20.81</ele>
        <time>2020-07-28T06:58:58Z</time>
      </trkpt>
      <trkpt lat="47.09159" lon="-1.25701">
        <ele>20.81</ele>
        <time>2020-07-28T06:59:26Z</time>
      </trkpt>
      <trkpt lat="47.0917" lon="-1.25684">
        <ele>20.81</ele>
        <time>2020-07-28T06:59:41Z</time>
      </trkpt>
      <trkpt lat="47.09181" lon="-1.25663">
        <ele>20.81</ele>
        <time>2020-07-28T06:59:59Z</time>
      </trkpt>
      <trkpt lat="47.09199" lon="-1.25638">
        <ele>21.29</ele>
        <time>2020-07-28T07:00:17Z</time>
      </trkpt>
      <trkpt lat="47.09224" lon="-1.25617">
        <ele>21.29</ele>
        <time>2020-07-28T07:00:38Z</time>
      </trkpt>
      <trkpt lat="47.09248" lon="-1.25597">
        <ele>23.69</ele>
        <time>2020-07-28T07:01:00Z</time>
      </trkpt>
      <trkpt lat="47.0927" lon="-1.25576">
        <ele>25.61</ele>
        <time>2020-07-28T07:01:22Z</time>
      </trkpt>
      <trkpt lat="47.09287" lon="-1.25559">
        <ele>26.09</ele>
        <time>2020-07-28T07:01:37Z</time>
      </trkpt>
      <trkpt lat="47.09311" lon="-1.25535">
        <ele>27.05</ele>
        <time>2020-07-28T07:02:01Z</time>
      </trkpt>
      <trkpt lat="47.09325" lon="-1.25507">
        <ele>27.53</ele>
        <time>2020-07-28T07:02:21Z</time>
      </trkpt>
      <trkpt lat="47.0933" lon="-1.25476">
        <ele>28.98</ele>
        <time>2020-07-28T07:02:37Z</time>
      </trkpt>
      <trkpt lat="47.09341" lon="-1.25432">
        <ele>28.98</ele>
        <time>2020-07-28T07:03:02Z</time>
      </trkpt>
      <trkpt lat="47.09351" lon="-1.25391">
        <ele>29.94</ele>
        <time>2020-07-28T07:03:25Z</time>
      </trkpt>
      <trkpt lat="47.09361" lon="-1.25355">
        <ele>29.94</ele>
        <time>2020-07-28T07:03:46Z</time>
      </trkpt>
      <trkpt lat="47.09368" lon="-1.25321">
        <ele>30.42</ele>
        <time>2020-07-28T07:04:05Z</time>
      </trkpt>
      <trkpt lat="47.09372" lon="-1.2528">
        <ele>31.38</ele>
        <time>2020-07-28T07:04:27Z</time>
      </trkpt>
      <trkpt lat="47.0937" lon="-1.25245">
        <ele>32.34</ele>
        <time>2020-07-28T07:04:47Z</time>
      </trkpt>
      <trkpt lat="47.09369" lon="-1.25209">
        <ele>32.82</ele>
        <time>2020-07-28T07:05:08Z</time>
      </trkpt>
      <trkpt lat="47.0937" lon="-1.25183">
        <ele>33.78</ele>
        <time>2020-07-28T07:05:24Z</time>
      </trkpt>
      <trkpt lat="47.09371" lon="-1.25143">
        <ele>34.26</ele>
        <time>2020-07-28T07:05:46Z</time>
      </trkpt>
      <trkpt lat="47.09377" lon="-1.25107">
        <ele>35.23</ele>
        <time>2020-07-28T07:06:07Z</time>
      </trkpt>
      <trkpt lat="47.09378" lon="-1.25101">
        <ele>35.23</ele>
        <time>2020-07-28T07:06:25Z</time>
      </trkpt>
      <trkpt lat="47.09379" lon="-1.25095">
        <ele>35.23</ele>
        <time>2020-07-28T07:06:43Z</time>
      </trkpt>
      <trkpt lat="47.09383" lon="-1.25076">
        <ele>35.71</ele>
        <time>2020-07-28T07:07:01Z</time>
      </trkpt>
      <trkpt lat="47.09389" lon="-1.25042">
        <ele>35.71</ele>
        <time>2020-07-28T07:07:21Z</time>
      </trkpt>
      <trkpt lat="47.09398" lon="-1.25003">
        <ele>33.78</ele>
        <time>2020-07-28T07:07:42Z</time>
      </trkpt>
      <trkpt lat="47.09409" lon="-1.24963">
        <ele>32.34</ele>
        <time>2020-07-28T07:08:04Z</time>
      </trkpt>
      <trkpt lat="47.09417" lon="-1.24933">
        <ele>31.38</ele>
        <time>2020-07-28T07:08:22Z</time>
      </trkpt>
      <trkpt lat="47.09429" lon="-1.24894">
        <ele>30.9</ele>
        <time>2020-07-28T07:08:44Z</time>
      </trkpt>
      <trkpt lat="47.09438" lon="-1.24865">
        <ele>30.42</ele>
        <time>2020-07-28T07:09:03Z</time>
      </trkpt>
      <trkpt lat="47.09447" lon="-1.24839">
        <ele>30.42</ele>
        <time>2020-07-28T07:09:19Z</time>
      </trkpt>
      <trkpt lat="47.09456" lon="-1.24806">
        <ele>30.42</ele>
        <time>2020-07-28T07:09:38Z</time>
      </trkpt>
      <trkpt lat="47.09463" lon="-1.24776">
        <ele>32.34</ele>
        <time>2020-07-28T07:09:57Z</time>
      </trkpt>
      <trkpt lat="47.09465" lon="-1.24766">
        <ele>32.82</ele>
        <time>2020-07-28T07:10:17Z</time>
      </trkpt>
      <trkpt lat="47.09463" lon="-1.24751">
        <ele>32.82</ele>
        <time>2020-07-28T07:10:38Z</time>
      </trkpt>
      <trkpt lat="47.09461" lon="-1.24748">
        <ele>32.82</ele>
        <time>2020-07-28T07:10:41Z</time>
      </trkpt>
      <trkpt lat="47.09455" lon="-1.24745">
        <ele>32.82</ele>
        <time>2020-07-28T07:10:48Z</time>
      </trkpt>
      <trkpt lat="47.09429" lon="-1.24734">
        <ele>33.78</ele>
        <time>2020-07-28T07:11:13Z</time>
      </trkpt>
      <trkpt lat="47.09415" lon="-1.24727">
        <ele>34.26</ele>
        <time>2020-07-28T07:11:25Z</time>
      </trkpt>
      <trkpt lat="47.09397" lon="-1.24712">
        <ele>34.74</ele>
        <time>2020-07-28T07:11:42Z</time>
      </trkpt>
      <trkpt lat="47.09375" lon="-1.24694">
        <ele>36.19</ele>
        <time>2020-07-28T07:12:02Z</time>
      </trkpt>
      <trkpt lat="47.09356" lon="-1.24681">
        <ele>36.67</ele>
        <time>2020-07-28T07:12:18Z</time>
      </trkpt>
      <trkpt lat="47.09347" lon="-1.24673">
        <ele>37.15</ele>
        <time>2020-07-28T07:12:27Z</time>
      </trkpt>
      <trkpt lat="47.09326" lon="-1.24659">
        <ele>37.15</ele>
        <time>2020-07-28T07:12:44Z</time>
      </trkpt>
      <trkpt lat="47.09308" lon="-1.24645">
        <ele>38.11</ele>
        <time>2020-07-28T07:13:00Z</time>
      </trkpt>
      <trkpt lat="47.09306" lon="-1.24641">
        <ele>38.11</ele>
        <time>2020-07-28T07:13:03Z</time>
      </trkpt>
      <trkpt lat="47.09312" lon="-1.24613">
        <ele>38.11</ele>
        <time>2020-07-28T07:13:21Z</time>
      </trkpt>
      <trkpt lat="47.09316" lon="-1.24589">
        <ele>38.11</ele>
        <time>2020-07-28T07:13:37Z</time>
      </trkpt>
      <trkpt lat="47.09322" lon="-1.24562">
        <ele>38.11</ele>
        <time>2020-07-28T07:13:54Z</time>
      </trkpt>
      <trkpt lat="47.09324" lon="-1.24527">
        <ele>38.59</ele>
        <time>2020-07-28T07:14:13Z</time>
      </trkpt>
      <trkpt lat="47.09324" lon="-1.24492">
        <ele>38.59</ele>
        <time>2020-07-28T07:14:32Z</time>
      </trkpt>
      <trkpt lat="47.09324" lon="-1.24453">
        <ele>38.59</ele>
        <time>2020-07-28T07:14:52Z</time>
      </trkpt>
      <trkpt lat="47.09326" lon="-1.24416">
        <ele>38.59</ele>
        <time>2020-07-28T07:15:13Z</time>
      </trkpt>
      <trkpt lat="47.09326" lon="-1.24413">
        <ele>37.15</ele>
        <time>2020-07-28T07:15:15Z</time>
      </trkpt>
      <trkpt lat="47.09327" lon="-1.24381">
        <ele>35.71</ele>
        <time>2020-07-28T07:15:33Z</time>
      </trkpt>
      <trkpt lat="47.09326" lon="-1.24352">
        <ele>35.71</ele>
        <time>2020-07-28T07:15:49Z</time>
      </trkpt>
      <trkpt lat="47.09328" lon="-1.24319">
        <ele>35.71</ele>
        <time>2020-07-28T07:16:08Z</time>
      </trkpt>
      <trkpt lat="47.09328" lon="-1.24315">
        <ele>35.71</ele>
        <time>2020-07-28T07:16:10Z</time>
      </trkpt>
      <trkpt lat="47.0933" lon="-1.24294">
        <ele>37.15</ele>
        <time>2020-07-28T07:16:24Z</time>
      </trkpt>
      <trkpt lat="47.0933" lon="-1.24293">
        <ele>37.63</ele>
        <time>2020-07-28T07:16:25Z</time>
      </trkpt>
      <trkpt lat="47.09332" lon="-1.24284">
        <ele>37.63</ele>
        <time>2020-07-28T07:16:30Z</time>
      </trkpt>
      <trkpt lat="47.09337" lon="-1.24255">
        <ele>39.55</ele>
        <time>2020-07-28T07:16:49Z</time>
      </trkpt>
      <trkpt lat="47.09346" lon="-1.24225">
        <ele>40.99</ele>
        <time>2020-07-28T07:17:08Z</time>
      </trkpt>
      <trkpt lat="47.09352" lon="-1.24206">
        <ele>40.99</ele>
        <time>2020-07-28T07:17:19Z</time>
      </trkpt>
      <trkpt lat="47.09356" lon="-1.24178">
        <ele>41.95</ele>
        <time>2020-07-28T07:17:35Z</time>
      </trkpt>
      <trkpt lat="47.09357" lon="-1.24163">
        <ele>42.44</ele>
        <time>2020-07-28T07:17:45Z</time>
      </trkpt>
      <trkpt lat="47.09357" lon="-1.24155">
        <ele>42.44</ele>
        <time>2020-07-28T07:17:49Z</time>
      </trkpt>
      <trkpt lat="47.0936" lon="-1.24123">
        <ele>43.4</ele>
        <time>2020-07-28T07:18:06Z</time>
      </trkpt>
      <trkpt lat="47.0936" lon="-1.24097">
        <ele>43.88</ele>
        <time>2020-07-28T07:18:21Z</time>
      </trkpt>
      <trkpt lat="47.09356" lon="-1.24064">
        <ele>44.36</ele>
        <time>2020-07-28T07:18:40Z</time>
      </trkpt>
      <trkpt lat="47.09352" lon="-1.2405">
        <ele>44.84</ele>
        <time>2020-07-28T07:18:48Z</time>
      </trkpt>
      <trkpt lat="47.09352" lon="-1.24022">
        <ele>42.44</ele>
        <time>2020-07-28T07:19:04Z</time>
      </trkpt>
      <trkpt lat="47.09355" lon="-1.23989">
        <ele>41.95</ele>
        <time>2020-07-28T07:19:22Z</time>
      </trkpt>
      <trkpt lat="47.0936" lon="-1.2396">
        <ele>41.95</ele>
        <time>2020-07-28T07:19:39Z</time>
      </trkpt>
      <trkpt lat="47.09362" lon="-1.2395">
        <ele>41.95</ele>
        <time>2020-07-28T07:19:45Z</time>
      </trkpt>
      <trkpt lat="47.0937" lon="-1.23926">
        <ele>42.92</ele>
        <time>2020-07-28T07:19:59Z</time>
      </trkpt>
      <trkpt lat="47.09377" lon="-1.23897">
        <ele>43.88</ele>
        <time>2020-07-28T07:20:16Z</time>
      </trkpt>
      <trkpt lat="47.09383" lon="-1.23863">
        <ele>44.84</ele>
        <time>2020-07-28T07:20:33Z</time>
      </trkpt>
      <trkpt lat="47.09391" lon="-1.23826">
        <ele>45.32</ele>
        <time>2020-07-28T07:20:52Z</time>
      </trkpt>
      <trkpt lat="47.09396" lon="-1.23801">
        <ele>45.32</ele>
        <time>2020-07-28T07:21:06Z</time>
      </trkpt>
      <trkpt lat="47.094" lon="-1.23771">
        <ele>45.32</ele>
        <time>2020-07-28T07:21:22Z</time>
      </trkpt>
      <trkpt lat="47.09403" lon="-1.23749">
        <ele>45.8</ele>
        <time>2020-07-28T07:21:37Z</time>
      </trkpt>
      <trkpt lat="47.0941" lon="-1.23707">
        <ele>45.8</ele>
        <time>2020-07-28T07:21:56Z</time>
      </trkpt>
      <trkpt lat="47.09415" lon="-1.23682">
        <ele>44.36</ele>
        <time>2020-07-28T07:22:10Z</time>
      </trkpt>
      <trkpt lat="47.09424" lon="-1.23646">
        <ele>44.36</ele>
        <time>2020-07-28T07:22:31Z</time>
      </trkpt>
      <trkpt lat="47.09428" lon="-1.23609">
        <ele>43.88</ele>
        <time>2020-07-28T07:22:52Z</time>
      </trkpt>
      <trkpt lat="47.09439" lon="-1.23578">
        <ele>43.88</ele>
        <time>2020-07-28T07:23:13Z</time>
      </trkpt>
      <trkpt lat="47.09449" lon="-1.23552">
        <ele>45.32</ele>
        <time>2020-07-28T07:23:30Z</time>
      </trkpt>
      <trkpt lat="47.09459" lon="-1.23514">
        <ele>45.8</ele>
        <time>2020-07-28T07:23:53Z</time>
      </trkpt>
      <trkpt lat="47.09461" lon="-1.23507">
        <ele>45.8</ele>
        <time>2020-07-28T07:23:57Z</time>
      </trkpt>
      <trkpt lat="47.0946" lon="-1.23465">
        <ele>46.76</ele>
        <time>2020-07-28T07:24:21Z</time>
      </trkpt>
      <trkpt lat="47.09456" lon="-1.23425">
        <ele>47.72</ele>
        <time>2020-07-28T07:24:44Z</time>
      </trkpt>
      <trkpt lat="47.09449" lon="-1.23386">
        <ele>48.68</ele>
        <time>2020-07-28T07:25:05Z</time>
      </trkpt>
      <trkpt lat="47.09444" lon="-1.23352">
        <ele>49.16</ele>
        <time>2020-07-28T07:25:24Z</time>
      </trkpt>
      <trkpt lat="47.09437" lon="-1.23323">
        <ele>50.13</ele>
        <time>2020-07-28T07:25:42Z</time>
      </trkpt>
      <trkpt lat="47.09432" lon="-1.23288">
        <ele>50.61</ele>
        <time>2020-07-28T07:26:01Z</time>
      </trkpt>
      <trkpt lat="47.09424" lon="-1.23251">
        <ele>51.57</ele>
        <time>2020-07-28T07:26:22Z</time>
      </trkpt>
      <trkpt lat="47.09414" lon="-1.23212">
        <ele>52.53</ele>
        <time>2020-07-28T07:26:45Z</time>
      </trkpt>
      <trkpt lat="47.09405" lon="-1.2318">
        <ele>53.49</ele>
        <time>2020-07-28T07:27:04Z</time>
      </trkpt>
      <trkpt lat="47.09394" lon="-1.23143">
        <ele>53.97</ele>
        <time>2020-07-28T07:27:25Z</time>
      </trkpt>
      <trkpt lat="47.09382" lon="-1.23106">
        <ele>54.93</ele>
        <time>2020-07-28T07:27:47Z</time>
      </trkpt>
      <trkpt lat="47.09372" lon="-1.23071">
        <ele>55.41</ele>
        <time>2020-07-28T07:28:08Z</time>
      </trkpt>
      <trkpt lat="47.09362" lon="-1.23035">
        <ele>55.89</ele>
        <time>2020-07-28T07:28:29Z</time>
      </trkpt>
      <trkpt lat="47.09353" lon="-1.22999">
        <ele>56.37</ele>
        <time>2020-07-28T07:28:50Z</time>
      </trkpt>
      <trkpt lat="47.09347" lon="-1.22964">
        <ele>57.34</ele>
        <time>2020-07-28T07:29:10Z</time>
      </trkpt>
      <trkpt lat="47.09347" lon="-1.22919">
        <ele>57.82</ele>
        <time>2020-07-28T07:29:34Z</time>
      </trkpt>
      <trkpt lat="47.09356" lon="-1.22877">
        <ele>58.3</ele>
        <time>2020-07-28T07:29:57Z</time>
      </trkpt>
      <trkpt lat="47.09365" lon="-1.22844">
        <ele>58.78</ele>
        <time>2020-07-28T07:30:15Z</time>
      </trkpt>
      <trkpt lat="47.09372" lon="-1.22812">
        <ele>59.26</ele>
        <time>2020-07-28T07:30:33Z</time>
      </trkpt>
      <trkpt lat="47.09382" lon="-1.22773">
        <ele>59.74</ele>
        <time>2020-07-28T07:30:55Z</time>
      </trkpt>
      <trkpt lat="47.09397" lon="-1.22754">
        <ele>59.74</ele>
        <time>2020-07-28T07:31:12Z</time>
      </trkpt>
      <trkpt lat="47.0942" lon="-1.22763">
        <ele>60.22</ele>
        <time>2020-07-28T07:31:31Z</time>
      </trkpt>
      <trkpt lat="47.09447" lon="-1.22772">
        <ele>60.22</ele>
        <time>2020-07-28T07:31:53Z</time>
      </trkpt>
      <trkpt lat="47.09477" lon="-1.22783">
        <ele>60.7</ele>
        <time>2020-07-28T07:32:17Z</time>
      </trkpt>
      <trkpt lat="47.09497" lon="-1.2279">
        <ele>60.7</ele>
        <time>2020-07-28T07:32:33Z</time>
      </trkpt>
      <trkpt lat="47.09513" lon="-1.22795">
        <ele>60.7</ele>
        <time>2020-07-28T07:32:46Z</time>
      </trkpt>
      <trkpt lat="47.09537" lon="-1.22804">
        <ele>60.7</ele>
        <time>2020-07-28T07:33:05Z</time>
      </trkpt>
      <trkpt lat="47.09558" lon="-1.22811">
        <ele>59.74</ele>
        <time>2020-07-28T07:33:22Z</time>
      </trkpt>
      <trkpt lat="47.09579" lon="-1.22818">
        <ele>59.74</ele>
        <time>2020-07-28T07:33:39Z</time>
      </trkpt>
      <trkpt lat="47.09607" lon="-1.22827">
        <ele>59.74</ele>
        <time>2020-07-28T07:34:02Z</time>
      </trkpt>
      <trkpt lat="47.09608" lon="-1.22825">
        <ele>59.74</ele>
        <time>2020-07-28T07:34:17Z</time>
      </trkpt>
      <trkpt lat="47.09611" lon="-1.22825">
        <ele>59.74</ele>
        <time>2020-07-28T07:34:34Z</time>
      </trkpt>
      <trkpt lat="47.09611" lon="-1.22826">
        <ele>59.74</ele>
        <time>2020-07-28T07:34:35Z</time>
      </trkpt>
      <trkpt lat="47.09635" lon="-1.22834">
        <ele>59.74</ele>
        <time>2020-07-28T07:34:56Z</time>
      </trkpt>
      <trkpt lat="47.09638" lon="-1.22835">
        <ele>59.74</ele>
        <time>2020-07-28T07:34:59Z</time>
      </trkpt>
      <trkpt lat="47.09643" lon="-1.2284">
        <ele>59.26</ele>
        <time>2020-07-28T07:35:04Z</time>
      </trkpt>
      <trkpt lat="47.09645" lon="-1.22867">
        <ele>59.26</ele>
        <time>2020-07-28T07:35:20Z</time>
      </trkpt>
      <trkpt lat="47.09647" lon="-1.22887">
        <ele>59.26</ele>
        <time>2020-07-28T07:35:34Z</time>
      </trkpt>
      <trkpt lat="47.09662" lon="-1.22909">
        <ele>59.26</ele>
        <time>2020-07-28T07:35:54Z</time>
      </trkpt>
      <trkpt lat="47.09683" lon="-1.22921">
        <ele>58.3</ele>
        <time>2020-07-28T07:36:12Z</time>
      </trkpt>
      <trkpt lat="47.09708" lon="-1.22927">
        <ele>57.34</ele>
        <time>2020-07-28T07:36:32Z</time>
      </trkpt>
      <trkpt lat="47.09737" lon="-1.22939">
        <ele>56.86</ele>
        <time>2020-07-28T07:36:55Z</time>
      </trkpt>
      <trkpt lat="47.09758" lon="-1.22951">
        <ele>54.93</ele>
        <time>2020-07-28T07:37:14Z</time>
      </trkpt>
      <trkpt lat="47.09762" lon="-1.22957">
        <ele>53.97</ele>
        <time>2020-07-28T07:37:21Z</time>
      </trkpt>
      <trkpt lat="47.09762" lon="-1.22963">
        <ele>53.97</ele>
        <time>2020-07-28T07:37:25Z</time>
      </trkpt>
      <trkpt lat="47.0975" lon="-1.23004">
        <ele>51.57</ele>
        <time>2020-07-28T07:37:52Z</time>
      </trkpt>
      <trkpt lat="47.09742" lon="-1.2303">
        <ele>48.2</ele>
        <time>2020-07-28T07:38:10Z</time>
      </trkpt>
      <trkpt lat="47.0974" lon="-1.23064">
        <ele>45.8</ele>
        <time>2020-07-28T07:38:31Z</time>
      </trkpt>
      <trkpt lat="47.09754" lon="-1.2308">
        <ele>42.44</ele>
        <time>2020-07-28T07:38:47Z</time>
      </trkpt>
      <trkpt lat="47.09768" lon="-1.23094">
        <ele>39.07</ele>
        <time>2020-07-28T07:39:03Z</time>
      </trkpt>
      <trkpt lat="47.09783" lon="-1.2311">
        <ele>36.19</ele>
        <time>2020-07-28T07:39:20Z</time>
      </trkpt>
      <trkpt lat="47.09797" lon="-1.23128">
        <ele>32.82</ele>
        <time>2020-07-28T07:39:37Z</time>
      </trkpt>
      <trkpt lat="47.09805" lon="-1.23149">
        <ele>29.46</ele>
        <time>2020-07-28T07:39:53Z</time>
      </trkpt>
      <trkpt lat="47.09808" lon="-1.23171">
        <ele>26.57</ele>
        <time>2020-07-28T07:40:08Z</time>
      </trkpt>
      <trkpt lat="47.0981" lon="-1.2318">
        <ele>24.65</ele>
        <time>2020-07-28T07:40:15Z</time>
      </trkpt>
      <trkpt lat="47.09813" lon="-1.2321">
        <ele>21.77</ele>
        <time>2020-07-28T07:40:33Z</time>
      </trkpt>
      <trkpt lat="47.09812" lon="-1.23232">
        <ele>20.32</ele>
        <time>2020-07-28T07:40:49Z</time>
      </trkpt>
      <trkpt lat="47.09814" lon="-1.23254">
        <ele>18.88</ele>
        <time>2020-07-28T07:41:05Z</time>
      </trkpt>
      <trkpt lat="47.0982" lon="-1.23264">
        <ele>20.32</ele>
        <time>2020-07-28T07:41:15Z</time>
      </trkpt>
      <trkpt lat="47.09827" lon="-1.23284">
        <ele>21.29</ele>
        <time>2020-07-28T07:41:33Z</time>
      </trkpt>
      <trkpt lat="47.09829" lon="-1.23298">
        <ele>19.36</ele>
        <time>2020-07-28T07:41:49Z</time>
      </trkpt>
      <trkpt lat="47.09829" lon="-1.23308">
        <ele>18.4</ele>
        <time>2020-07-28T07:42:13Z</time>
      </trkpt>
      <trkpt lat="47.09825" lon="-1.23311">
        <ele>18.4</ele>
        <time>2020-07-28T07:42:31Z</time>
      </trkpt>
      <trkpt lat="47.09812" lon="-1.23317">
        <ele>17.92</ele>
        <time>2020-07-28T07:42:54Z</time>
      </trkpt>
      <trkpt lat="47.09807" lon="-1.23318">
        <ele>17.92</ele>
        <time>2020-07-28T07:43:15Z</time>
      </trkpt>
      <trkpt lat="47.09808" lon="-1.23316">
        <ele>18.4</ele>
        <time>2020-07-28T07:43:48Z</time>
      </trkpt>
      <trkpt lat="47.09802" lon="-1.23323">
        <ele>18.4</ele>
        <time>2020-07-28T07:44:03Z</time>
      </trkpt>
      <trkpt lat="47.09798" lon="-1.23328">
        <ele>18.4</ele>
        <time>2020-07-28T07:44:39Z</time>
      </trkpt>
      <trkpt lat="47.09785" lon="-1.23335">
        <ele>18.4</ele>
        <time>2020-07-28T07:45:01Z</time>
      </trkpt>
      <trkpt lat="47.09785" lon="-1.23336">
        <ele>19.84</ele>
        <time>2020-07-28T07:45:14Z</time>
      </trkpt>
      <trkpt lat="47.09776" lon="-1.23342">
        <ele>20.32</ele>
        <time>2020-07-28T07:45:36Z</time>
      </trkpt>
      <trkpt lat="47.09758" lon="-1.23352">
        <ele>20.81</ele>
        <time>2020-07-28T07:45:57Z</time>
      </trkpt>
      <trkpt lat="47.09744" lon="-1.23362">
        <ele>20.81</ele>
        <time>2020-07-28T07:46:16Z</time>
      </trkpt>
      <trkpt lat="47.09724" lon="-1.23381">
        <ele>19.84</ele>
        <time>2020-07-28T07:46:36Z</time>
      </trkpt>
      <trkpt lat="47.09714" lon="-1.23389">
        <ele>19.84</ele>
        <time>2020-07-28T07:46:52Z</time>
      </trkpt>
      <trkpt lat="47.09707" lon="-1.23391">
        <ele>19.36</ele>
        <time>2020-07-28T07:47:10Z</time>
      </trkpt>
      <trkpt lat="47.09704" lon="-1.23393">
        <ele>19.36</ele>
        <time>2020-07-28T07:47:15Z</time>
      </trkpt>
      <trkpt lat="47.09683" lon="-1.23417">
        <ele>19.36</ele>
        <time>2020-07-28T07:47:35Z</time>
      </trkpt>
      <trkpt lat="47.09667" lon="-1.23433">
        <ele>19.36</ele>
        <time>2020-07-28T07:47:51Z</time>
      </trkpt>
      <trkpt lat="47.09659" lon="-1.2346">
        <ele>19.36</ele>
        <time>2020-07-28T07:48:08Z</time>
      </trkpt>
      <trkpt lat="47.09652" lon="-1.23487">
        <ele>18.88</ele>
        <time>2020-07-28T07:48:25Z</time>
      </trkpt>
      <trkpt lat="47.09646" lon="-1.23522">
        <ele>18.4</ele>
        <time>2020-07-28T07:48:45Z</time>
      </trkpt>
      <trkpt lat="47.09643" lon="-1.2355">
        <ele>18.4</ele>
        <time>2020-07-28T07:49:00Z</time>
      </trkpt>
      <trkpt lat="47.09642" lon="-1.23582">
        <ele>18.4</ele>
        <time>2020-07-28T07:49:18Z</time>
      </trkpt>
      <trkpt lat="47.09643" lon="-1.23613">
        <ele>18.4</ele>
        <time>2020-07-28T07:49:37Z</time>
      </trkpt>
      <trkpt lat="47.09646" lon="-1.23646">
        <ele>17.92</ele>
        <time>2020-07-28T07:49:56Z</time>
      </trkpt>
      <trkpt lat="47.09647" lon="-1.23652">
        <ele>17.92</ele>
        <time>2020-07-28T07:50:00Z</time>
      </trkpt>
      <trkpt lat="47.09649" lon="-1.23672">
        <ele>17.92</ele>
        <time>2020-07-28T07:50:15Z</time>
      </trkpt>
      <trkpt lat="47.09651" lon="-1.23697">
        <ele>17.44</ele>
        <time>2020-07-28T07:50:33Z</time>
      </trkpt>
      <trkpt lat="47.09652" lon="-1.23733">
        <ele>17.44</ele>
        <time>2020-07-28T07:50:52Z</time>
      </trkpt>
      <trkpt lat="47.09654" lon="-1.2376">
        <ele>17.44</ele>
        <time>2020-07-28T07:51:08Z</time>
      </trkpt>
      <trkpt lat="47.09653" lon="-1.23787">
        <ele>16.96</ele>
        <time>2020-07-28T07:51:25Z</time>
      </trkpt>
      <trkpt lat="47.09655" lon="-1.23814">
        <ele>16.96</ele>
        <time>2020-07-28T07:51:44Z</time>
      </trkpt>
      <trkpt lat="47.09653" lon="-1.23842">
        <ele>16.96</ele>
        <time>2020-07-28T07:52:04Z</time>
      </trkpt>
      <trkpt lat="47.09648" lon="-1.23867">
        <ele>16.96</ele>
        <time>2020-07-28T07:52:22Z</time>
      </trkpt>
      <trkpt lat="47.09635" lon="-1.23893">
        <ele>16.96</ele>
        <time>2020-07-28T07:52:41Z</time>
      </trkpt>
      <trkpt lat="47.09616" lon="-1.23939">
        <ele>16.96</ele>
        <time>2020-07-28T07:53:03Z</time>
      </trkpt>
      <trkpt lat="47.09611" lon="-1.23946">
        <ele>18.4</ele>
        <time>2020-07-28T07:53:10Z</time>
      </trkpt>
      <trkpt lat="47.09605" lon="-1.23949">
        <ele>16.96</ele>
        <time>2020-07-28T07:53:16Z</time>
      </trkpt>
      <trkpt lat="47.09596" lon="-1.23962">
        <ele>16.96</ele>
        <time>2020-07-28T07:53:32Z</time>
      </trkpt>
      <trkpt lat="47.09575" lon="-1.2398">
        <ele>17.92</ele>
        <time>2020-07-28T07:53:50Z</time>
      </trkpt>
      <trkpt lat="47.09559" lon="-1.23992">
        <ele>17.92</ele>
        <time>2020-07-28T07:54:09Z</time>
      </trkpt>
      <trkpt lat="47.09537" lon="-1.24007">
        <ele>16</ele>
        <time>2020-07-28T07:54:28Z</time>
      </trkpt>
      <trkpt lat="47.09514" lon="-1.2402">
        <ele>15.52</ele>
        <time>2020-07-28T07:54:47Z</time>
      </trkpt>
      <trkpt lat="47.09509" lon="-1.24027">
        <ele>16.96</ele>
        <time>2020-07-28T07:54:56Z</time>
      </trkpt>
      <trkpt lat="47.09504" lon="-1.24043">
        <ele>20.32</ele>
        <time>2020-07-28T07:55:13Z</time>
      </trkpt>
      <trkpt lat="47.09501" lon="-1.24057">
        <ele>23.69</ele>
        <time>2020-07-28T07:55:30Z</time>
      </trkpt>
      <trkpt lat="47.095" lon="-1.24072">
        <ele>27.05</ele>
        <time>2020-07-28T07:55:48Z</time>
      </trkpt>
      <trkpt lat="47.09505" lon="-1.24094">
        <ele>29.94</ele>
        <time>2020-07-28T07:56:06Z</time>
      </trkpt>
      <trkpt lat="47.09503" lon="-1.24103">
        <ele>30.9</ele>
        <time>2020-07-28T07:56:16Z</time>
      </trkpt>
      <trkpt lat="47.09503" lon="-1.24128">
        <ele>31.38</ele>
        <time>2020-07-28T07:56:32Z</time>
      </trkpt>
      <trkpt lat="47.09505" lon="-1.24137">
        <ele>31.38</ele>
        <time>2020-07-28T07:56:37Z</time>
      </trkpt>
      <trkpt lat="47.09507" lon="-1.24143">
        <ele>31.86</ele>
        <time>2020-07-28T07:56:42Z</time>
      </trkpt>
      <trkpt lat="47.0951" lon="-1.24165">
        <ele>32.34</ele>
        <time>2020-07-28T07:56:56Z</time>
      </trkpt>
      <trkpt lat="47.0952" lon="-1.24183">
        <ele>33.3</ele>
        <time>2020-07-28T07:57:11Z</time>
      </trkpt>
      <trkpt lat="47.09532" lon="-1.24199">
        <ele>35.23</ele>
        <time>2020-07-28T07:57:28Z</time>
      </trkpt>
      <trkpt lat="47.09533" lon="-1.24213">
        <ele>34.74</ele>
        <time>2020-07-28T07:57:47Z</time>
      </trkpt>
      <trkpt lat="47.09535" lon="-1.24231">
        <ele>33.78</ele>
        <time>2020-07-28T07:58:00Z</time>
      </trkpt>
      <trkpt lat="47.09536" lon="-1.24234">
        <ele>33.78</ele>
        <time>2020-07-28T07:58:02Z</time>
      </trkpt>
      <trkpt lat="47.09534" lon="-1.24265">
        <ele>32.34</ele>
        <time>2020-07-28T07:58:21Z</time>
      </trkpt>
      <trkpt lat="47.09536" lon="-1.24289">
        <ele>31.86</ele>
        <time>2020-07-28T07:58:35Z</time>
      </trkpt>
      <trkpt lat="47.0955" lon="-1.24298">
        <ele>31.86</ele>
        <time>2020-07-28T07:58:51Z</time>
      </trkpt>
      <trkpt lat="47.09561" lon="-1.24308">
        <ele>30.9</ele>
        <time>2020-07-28T07:59:06Z</time>
      </trkpt>
      <trkpt lat="47.09577" lon="-1.24321">
        <ele>30.42</ele>
        <time>2020-07-28T07:59:24Z</time>
      </trkpt>
      <trkpt lat="47.09592" lon="-1.24333">
        <ele>28.98</ele>
        <time>2020-07-28T07:59:41Z</time>
      </trkpt>
      <trkpt lat="47.09605" lon="-1.24347">
        <ele>27.53</ele>
        <time>2020-07-28T07:59:58Z</time>
      </trkpt>
      <trkpt lat="47.0961" lon="-1.24349">
        <ele>27.53</ele>
        <time>2020-07-28T08:00:00Z</time>
      </trkpt>
      <trkpt lat="47.09618" lon="-1.24367">
        <ele>27.05</ele>
        <time>2020-07-28T08:00:13Z</time>
      </trkpt>
      <trkpt lat="47.09631" lon="-1.24378">
        <ele>26.57</ele>
        <time>2020-07-28T08:00:29Z</time>
      </trkpt>
      <trkpt lat="47.09646" lon="-1.24389">
        <ele>29.46</ele>
        <time>2020-07-28T08:00:46Z</time>
      </trkpt>
      <trkpt lat="47.09662" lon="-1.244">
        <ele>31.38</ele>
        <time>2020-07-28T08:01:03Z</time>
      </trkpt>
      <trkpt lat="47.0967" lon="-1.24413">
        <ele>34.26</ele>
        <time>2020-07-28T08:01:21Z</time>
      </trkpt>
      <trkpt lat="47.0969" lon="-1.24423">
        <ele>35.23</ele>
        <time>2020-07-28T08:01:38Z</time>
      </trkpt>
      <trkpt lat="47.09707" lon="-1.24433">
        <ele>36.67</ele>
        <time>2020-07-28T08:01:54Z</time>
      </trkpt>
      <trkpt lat="47.09729" lon="-1.24447">
        <ele>38.11</ele>
        <time>2020-07-28T08:02:15Z</time>
      </trkpt>
      <trkpt lat="47.09756" lon="-1.24458">
        <ele>39.07</ele>
        <time>2020-07-28T08:02:39Z</time>
      </trkpt>
      <trkpt lat="47.09776" lon="-1.2447">
        <ele>39.55</ele>
        <time>2020-07-28T08:02:59Z</time>
      </trkpt>
      <trkpt lat="47.09799" lon="-1.2448">
        <ele>37.15</ele>
        <time>2020-07-28T08:03:20Z</time>
      </trkpt>
      <trkpt lat="47.09823" lon="-1.24492">
        <ele>36.19</ele>
        <time>2020-07-28T08:03:40Z</time>
      </trkpt>
      <trkpt lat="47.09833" lon="-1.24499">
        <ele>35.23</ele>
        <time>2020-07-28T08:03:49Z</time>
      </trkpt>
      <trkpt lat="47.09834" lon="-1.24502">
        <ele>35.23</ele>
        <time>2020-07-28T08:03:51Z</time>
      </trkpt>
      <trkpt lat="47.09836" lon="-1.24528">
        <ele>34.26</ele>
        <time>2020-07-28T08:04:09Z</time>
      </trkpt>
      <trkpt lat="47.09832" lon="-1.2456">
        <ele>32.82</ele>
        <time>2020-07-28T08:04:27Z</time>
      </trkpt>
      <trkpt lat="47.09828" lon="-1.24591">
        <ele>30.9</ele>
        <time>2020-07-28T08:04:45Z</time>
      </trkpt>
      <trkpt lat="47.09824" lon="-1.24628">
        <ele>29.46</ele>
        <time>2020-07-28T08:05:06Z</time>
      </trkpt>
      <trkpt lat="47.09828" lon="-1.24663">
        <ele>28.02</ele>
        <time>2020-07-28T08:05:25Z</time>
      </trkpt>
      <trkpt lat="47.09836" lon="-1.24697">
        <ele>26.57</ele>
        <time>2020-07-28T08:05:45Z</time>
      </trkpt>
      <trkpt lat="47.09845" lon="-1.24731">
        <ele>24.65</ele>
        <time>2020-07-28T08:06:05Z</time>
      </trkpt>
      <trkpt lat="47.0985" lon="-1.24759">
        <ele>23.21</ele>
        <time>2020-07-28T08:06:22Z</time>
      </trkpt>
      <trkpt lat="47.09852" lon="-1.24778">
        <ele>22.25</ele>
        <time>2020-07-28T08:06:33Z</time>
      </trkpt>
      <trkpt lat="47.09855" lon="-1.24814">
        <ele>20.81</ele>
        <time>2020-07-28T08:06:54Z</time>
      </trkpt>
      <trkpt lat="47.09853" lon="-1.2485">
        <ele>19.36</ele>
        <time>2020-07-28T08:07:15Z</time>
      </trkpt>
      <trkpt lat="47.09851" lon="-1.24882">
        <ele>18.4</ele>
        <time>2020-07-28T08:07:33Z</time>
      </trkpt>
      <trkpt lat="47.0985" lon="-1.24914">
        <ele>17.44</ele>
        <time>2020-07-28T08:07:51Z</time>
      </trkpt>
      <trkpt lat="47.09851" lon="-1.24946">
        <ele>16.96</ele>
        <time>2020-07-28T08:08:10Z</time>
      </trkpt>
      <trkpt lat="47.09849" lon="-1.24978">
        <ele>16.96</ele>
        <time>2020-07-28T08:08:27Z</time>
      </trkpt>
      <trkpt lat="47.0985" lon="-1.24994">
        <ele>18.4</ele>
        <time>2020-07-28T08:08:36Z</time>
      </trkpt>
      <trkpt lat="47.09851" lon="-1.25029">
        <ele>19.36</ele>
        <time>2020-07-28T08:08:55Z</time>
      </trkpt>
      <trkpt lat="47.0985" lon="-1.25062">
        <ele>21.29</ele>
        <time>2020-07-28T08:09:15Z</time>
      </trkpt>
      <trkpt lat="47.09849" lon="-1.25087">
        <ele>22.73</ele>
        <time>2020-07-28T08:09:31Z</time>
      </trkpt>
      <trkpt lat="47.09847" lon="-1.25115">
        <ele>24.17</ele>
        <time>2020-07-28T08:09:48Z</time>
      </trkpt>
      <trkpt lat="47.0984" lon="-1.25146">
        <ele>25.61</ele>
        <time>2020-07-28T08:10:08Z</time>
      </trkpt>
      <trkpt lat="47.0983" lon="-1.25173">
        <ele>27.05</ele>
        <time>2020-07-28T08:10:27Z</time>
      </trkpt>
      <trkpt lat="47.0982" lon="-1.25202">
        <ele>26.57</ele>
        <time>2020-07-28T08:10:47Z</time>
      </trkpt>
      <trkpt lat="47.0981" lon="-1.25235">
        <ele>26.57</ele>
        <time>2020-07-28T08:11:08Z</time>
      </trkpt>
      <trkpt lat="47.09799" lon="-1.25264">
        <ele>26.57</ele>
        <time>2020-07-28T08:11:27Z</time>
      </trkpt>
      <trkpt lat="47.09789" lon="-1.25299">
        <ele>26.57</ele>
        <time>2020-07-28T08:11:46Z</time>
      </trkpt>
      <trkpt lat="47.09783" lon="-1.25318">
        <ele>25.61</ele>
        <time>2020-07-28T08:11:59Z</time>
      </trkpt>
      <trkpt lat="47.09761" lon="-1.25311">
        <ele>25.13</ele>
        <time>2020-07-28T08:12:18Z</time>
      </trkpt>
      <trkpt lat="47.09744" lon="-1.25303">
        <ele>23.69</ele>
        <time>2020-07-28T08:12:35Z</time>
      </trkpt>
      <trkpt lat="47.09721" lon="-1.25293">
        <ele>23.21</ele>
        <time>2020-07-28T08:12:54Z</time>
      </trkpt>
      <trkpt lat="47.09699" lon="-1.25282">
        <ele>22.25</ele>
        <time>2020-07-28T08:13:12Z</time>
      </trkpt>
      <trkpt lat="47.09679" lon="-1.25275">
        <ele>22.25</ele>
        <time>2020-07-28T08:13:30Z</time>
      </trkpt>
      <trkpt lat="47.09667" lon="-1.25272">
        <ele>21.29</ele>
        <time>2020-07-28T08:13:40Z</time>
      </trkpt>
      <trkpt lat="47.09644" lon="-1.25266">
        <ele>20.81</ele>
        <time>2020-07-28T08:13:58Z</time>
      </trkpt>
      <trkpt lat="47.09622" lon="-1.25255">
        <ele>19.36</ele>
        <time>2020-07-28T08:14:17Z</time>
      </trkpt>
      <trkpt lat="47.09615" lon="-1.25251">
        <ele>18.4</ele>
        <time>2020-07-28T08:14:23Z</time>
      </trkpt>
      <trkpt lat="47.09596" lon="-1.25263">
        <ele>15.52</ele>
        <time>2020-07-28T08:14:44Z</time>
      </trkpt>
      <trkpt lat="47.09583" lon="-1.25274">
        <ele>13.12</ele>
        <time>2020-07-28T08:15:00Z</time>
      </trkpt>
      <trkpt lat="47.09567" lon="-1.25293">
        <ele>12.15</ele>
        <time>2020-07-28T08:15:17Z</time>
      </trkpt>
      <trkpt lat="47.09563" lon="-1.25316">
        <ele>11.67</ele>
        <time>2020-07-28T08:15:32Z</time>
      </trkpt>
      <trkpt lat="47.09565" lon="-1.25319">
        <ele>11.67</ele>
        <time>2020-07-28T08:15:34Z</time>
      </trkpt>
      <trkpt lat="47.09571" lon="-1.25347">
        <ele>11.67</ele>
        <time>2020-07-28T08:15:53Z</time>
      </trkpt>
      <trkpt lat="47.09574" lon="-1.25369">
        <ele>11.67</ele>
        <time>2020-07-28T08:16:09Z</time>
      </trkpt>
      <trkpt lat="47.09573" lon="-1.25375">
        <ele>11.67</ele>
        <time>2020-07-28T08:16:11Z</time>
      </trkpt>
      <trkpt lat="47.09571" lon="-1.25401">
        <ele>11.19</ele>
        <time>2020-07-28T08:16:27Z</time>
      </trkpt>
      <trkpt lat="47.09569" lon="-1.25432">
        <ele>10.71</ele>
        <time>2020-07-28T08:16:47Z</time>
      </trkpt>
      <trkpt lat="47.09568" lon="-1.25467">
        <ele>10.71</ele>
        <time>2020-07-28T08:17:04Z</time>
      </trkpt>
      <trkpt lat="47.09568" lon="-1.2547">
        <ele>10.71</ele>
        <time>2020-07-28T08:17:06Z</time>
      </trkpt>
      <trkpt lat="47.09568" lon="-1.25483">
        <ele>10.71</ele>
        <time>2020-07-28T08:17:14Z</time>
      </trkpt>
      <trkpt lat="47.09563" lon="-1.25508">
        <ele>10.71</ele>
        <time>2020-07-28T08:17:33Z</time>
      </trkpt>
      <trkpt lat="47.09552" lon="-1.25535">
        <ele>10.23</ele>
        <time>2020-07-28T08:17:51Z</time>
      </trkpt>
      <trkpt lat="47.09537" lon="-1.25564">
        <ele>9.75</ele>
        <time>2020-07-28T08:18:12Z</time>
      </trkpt>
      <trkpt lat="47.09528" lon="-1.25587">
        <ele>9.27</ele>
        <time>2020-07-28T08:18:27Z</time>
      </trkpt>
      <trkpt lat="47.09521" lon="-1.25598">
        <ele>8.79</ele>
        <time>2020-07-28T08:18:36Z</time>
      </trkpt>
      <trkpt lat="47.09519" lon="-1.256">
        <ele>9.75</ele>
        <time>2020-07-28T08:18:39Z</time>
      </trkpt>
      <trkpt lat="47.09508" lon="-1.25622">
        <ele>9.75</ele>
        <time>2020-07-28T08:18:56Z</time>
      </trkpt>
      <trkpt lat="47.09507" lon="-1.25626">
        <ele>9.75</ele>
        <time>2020-07-28T08:18:58Z</time>
      </trkpt>
      <trkpt lat="47.09504" lon="-1.25655">
        <ele>9.75</ele>
        <time>2020-07-28T08:19:16Z</time>
      </trkpt>
      <trkpt lat="47.09504" lon="-1.25687">
        <ele>9.75</ele>
        <time>2020-07-28T08:19:36Z</time>
      </trkpt>
      <trkpt lat="47.09505" lon="-1.25693">
        <ele>9.27</ele>
        <time>2020-07-28T08:19:39Z</time>
      </trkpt>
      <trkpt lat="47.09505" lon="-1.25701">
        <ele>9.27</ele>
        <time>2020-07-28T08:19:44Z</time>
      </trkpt>
      <trkpt lat="47.09502" lon="-1.25732">
        <ele>9.27</ele>
        <time>2020-07-28T08:20:02Z</time>
      </trkpt>
      <trkpt lat="47.09499" lon="-1.25758">
        <ele>9.27</ele>
        <time>2020-07-28T08:20:17Z</time>
      </trkpt>
      <trkpt lat="47.09501" lon="-1.25766">
        <ele>9.27</ele>
        <time>2020-07-28T08:20:22Z</time>
      </trkpt>
      <trkpt lat="47.09503" lon="-1.25793">
        <ele>8.79</ele>
        <time>2020-07-28T08:20:40Z</time>
      </trkpt>
      <trkpt lat="47.09502" lon="-1.25819">
        <ele>8.79</ele>
        <time>2020-07-28T08:20:57Z</time>
      </trkpt>
      <trkpt lat="47.09502" lon="-1.25845">
        <ele>8.79</ele>
        <time>2020-07-28T08:21:13Z</time>
      </trkpt>
      <trkpt lat="47.09501" lon="-1.25881">
        <ele>8.79</ele>
        <time>2020-07-28T08:21:29Z</time>
      </trkpt>
      <trkpt lat="47.09497" lon="-1.25906">
        <ele>8.79</ele>
        <time>2020-07-28T08:21:45Z</time>
      </trkpt>
      <trkpt lat="47.09494" lon="-1.2594">
        <ele>8.31</ele>
        <time>2020-07-28T08:22:01Z</time>
      </trkpt>
      <trkpt lat="47.09493" lon="-1.25961">
        <ele>7.83</ele>
        <time>2020-07-28T08:22:15Z</time>
      </trkpt>
      <trkpt lat="47.09489" lon="-1.25983">
        <ele>8.31</ele>
        <time>2020-07-28T08:22:30Z</time>
      </trkpt>
      <trkpt lat="47.0948" lon="-1.26005">
        <ele>8.31</ele>
        <time>2020-07-28T08:22:48Z</time>
      </trkpt>
      <trkpt lat="47.09467" lon="-1.26028">
        <ele>8.31</ele>
        <time>2020-07-28T08:23:02Z</time>
      </trkpt>
      <trkpt lat="47.09463" lon="-1.26031">
        <ele>8.31</ele>
        <time>2020-07-28T08:23:08Z</time>
      </trkpt>
      <trkpt lat="47.09448" lon="-1.26037">
        <ele>8.31</ele>
        <time>2020-07-28T08:23:25Z</time>
      </trkpt>
      <trkpt lat="47.09422" lon="-1.26048">
        <ele>9.27</ele>
        <time>2020-07-28T08:23:47Z</time>
      </trkpt>
      <trkpt lat="47.09405" lon="-1.26051">
        <ele>9.27</ele>
        <time>2020-07-28T08:24:04Z</time>
      </trkpt>
      <trkpt lat="47.09391" lon="-1.26054">
        <ele>11.19</ele>
        <time>2020-07-28T08:24:20Z</time>
      </trkpt>
      <trkpt lat="47.09376" lon="-1.26066">
        <ele>13.12</ele>
        <time>2020-07-28T08:24:39Z</time>
      </trkpt>
      <trkpt lat="47.09369" lon="-1.26071">
        <ele>15.04</ele>
        <time>2020-07-28T08:24:52Z</time>
      </trkpt>
      <trkpt lat="47.09358" lon="-1.26076">
        <ele>16.96</ele>
        <time>2020-07-28T08:25:07Z</time>
      </trkpt>
      <trkpt lat="47.09345" lon="-1.2608">
        <ele>20.32</ele>
        <time>2020-07-28T08:25:25Z</time>
      </trkpt>
      <trkpt lat="47.09334" lon="-1.26087">
        <ele>22.73</ele>
        <time>2020-07-28T08:25:40Z</time>
      </trkpt>
      <trkpt lat="47.0933" lon="-1.26093">
        <ele>22.73</ele>
        <time>2020-07-28T08:25:45Z</time>
      </trkpt>
      <trkpt lat="47.09319" lon="-1.26105">
        <ele>24.17</ele>
        <time>2020-07-28T08:25:59Z</time>
      </trkpt>
      <trkpt lat="47.09298" lon="-1.26132">
        <ele>24.17</ele>
        <time>2020-07-28T08:26:23Z</time>
      </trkpt>
      <trkpt lat="47.09288" lon="-1.26147">
        <ele>25.13</ele>
        <time>2020-07-28T08:26:36Z</time>
      </trkpt>
      <trkpt lat="47.09275" lon="-1.26169">
        <ele>25.13</ele>
        <time>2020-07-28T08:26:53Z</time>
      </trkpt>
      <trkpt lat="47.09275" lon="-1.26199">
        <ele>25.13</ele>
        <time>2020-07-28T08:27:12Z</time>
      </trkpt>
      <trkpt lat="47.0929" lon="-1.26224">
        <ele>27.05</ele>
        <time>2020-07-28T08:27:31Z</time>
      </trkpt>
      <trkpt lat="47.09303" lon="-1.26244">
        <ele>28.02</ele>
        <time>2020-07-28T08:27:48Z</time>
      </trkpt>
      <trkpt lat="47.09322" lon="-1.26276">
        <ele>29.46</ele>
        <time>2020-07-28T08:28:12Z</time>
      </trkpt>
      <trkpt lat="47.09337" lon="-1.26303">
        <ele>29.46</ele>
        <time>2020-07-28T08:28:33Z</time>
      </trkpt>
      <trkpt lat="47.09351" lon="-1.26333">
        <ele>29.46</ele>
        <time>2020-07-28T08:28:55Z</time>
      </trkpt>
      <trkpt lat="47.0937" lon="-1.26361">
        <ele>28.02</ele>
        <time>2020-07-28T08:29:16Z</time>
      </trkpt>
      <trkpt lat="47.09389" lon="-1.26387">
        <ele>26.09</ele>
        <time>2020-07-28T08:29:37Z</time>
      </trkpt>
      <trkpt lat="47.09408" lon="-1.26412">
        <ele>25.61</ele>
        <time>2020-07-28T08:29:58Z</time>
      </trkpt>
      <trkpt lat="47.09417" lon="-1.26427">
        <ele>25.13</ele>
        <time>2020-07-28T08:30:11Z</time>
      </trkpt>
      <trkpt lat="47.09413" lon="-1.26462">
        <ele>23.21</ele>
        <time>2020-07-28T08:30:31Z</time>
      </trkpt>
      <trkpt lat="47.09404" lon="-1.26497">
        <ele>22.73</ele>
        <time>2020-07-28T08:30:51Z</time>
      </trkpt>
      <trkpt lat="47.09398" lon="-1.26526">
        <ele>22.25</ele>
        <time>2020-07-28T08:31:09Z</time>
      </trkpt>
      <trkpt lat="47.09401" lon="-1.26555">
        <ele>22.25</ele>
        <time>2020-07-28T08:31:27Z</time>
      </trkpt>
      <trkpt lat="47.09416" lon="-1.26579">
        <ele>22.25</ele>
        <time>2020-07-28T08:31:45Z</time>
      </trkpt>
      <trkpt lat="47.0942" lon="-1.26585">
        <ele>22.25</ele>
        <time>2020-07-28T08:31:50Z</time>
      </trkpt>
      <trkpt lat="47.09436" lon="-1.26608">
        <ele>23.69</ele>
        <time>2020-07-28T08:32:09Z</time>
      </trkpt>
      <trkpt lat="47.09449" lon="-1.2663">
        <ele>24.65</ele>
        <time>2020-07-28T08:32:27Z</time>
      </trkpt>
      <trkpt lat="47.09463" lon="-1.26655">
        <ele>26.09</ele>
        <time>2020-07-28T08:32:45Z</time>
      </trkpt>
      <trkpt lat="47.09479" lon="-1.2668">
        <ele>27.05</ele>
        <time>2020-07-28T08:33:04Z</time>
      </trkpt>
      <trkpt lat="47.09495" lon="-1.26706">
        <ele>28.5</ele>
        <time>2020-07-28T08:33:25Z</time>
      </trkpt>
      <trkpt lat="47.0951" lon="-1.26732">
        <ele>29.46</ele>
        <time>2020-07-28T08:33:46Z</time>
      </trkpt>
      <trkpt lat="47.09523" lon="-1.26753">
        <ele>30.42</ele>
        <time>2020-07-28T08:34:03Z</time>
      </trkpt>
      <trkpt lat="47.09539" lon="-1.26781">
        <ele>31.38</ele>
        <time>2020-07-28T08:34:23Z</time>
      </trkpt>
      <trkpt lat="47.09552" lon="-1.26804">
        <ele>31.86</ele>
        <time>2020-07-28T08:34:41Z</time>
      </trkpt>
      <trkpt lat="47.09555" lon="-1.26803">
        <ele>32.34</ele>
        <time>2020-07-28T08:34:53Z</time>
      </trkpt>
      <trkpt lat="47.09559" lon="-1.26792">
        <ele>32.34</ele>
        <time>2020-07-28T08:35:00Z</time>
      </trkpt>
      <trkpt lat="47.09574" lon="-1.26768">
        <ele>32.34</ele>
        <time>2020-07-28T08:35:16Z</time>
      </trkpt>
      <trkpt lat="47.0959" lon="-1.26749">
        <ele>31.38</ele>
        <time>2020-07-28T08:35:34Z</time>
      </trkpt>
      <trkpt lat="47.09607" lon="-1.2673">
        <ele>31.38</ele>
        <time>2020-07-28T08:35:50Z</time>
      </trkpt>
      <trkpt lat="47.09626" lon="-1.26708">
        <ele>31.38</ele>
        <time>2020-07-28T08:36:13Z</time>
      </trkpt>
      <trkpt lat="47.09647" lon="-1.26682">
        <ele>30.9</ele>
        <time>2020-07-28T08:36:35Z</time>
      </trkpt>
      <trkpt lat="47.09667" lon="-1.26657">
        <ele>30.42</ele>
        <time>2020-07-28T08:36:57Z</time>
      </trkpt>
      <trkpt lat="47.09683" lon="-1.26647">
        <ele>30.42</ele>
        <time>2020-07-28T08:37:14Z</time>
      </trkpt>
      <trkpt lat="47.09701" lon="-1.26625">
        <ele>30.42</ele>
        <time>2020-07-28T08:37:33Z</time>
      </trkpt>
      <trkpt lat="47.09721" lon="-1.26599">
        <ele>29.46</ele>
        <time>2020-07-28T08:37:55Z</time>
      </trkpt>
      <trkpt lat="47.09738" lon="-1.26579">
        <ele>28.98</ele>
        <time>2020-07-28T08:38:15Z</time>
      </trkpt>
      <trkpt lat="47.09755" lon="-1.26564">
        <ele>28.98</ele>
        <time>2020-07-28T08:38:33Z</time>
      </trkpt>
      <trkpt lat="47.09771" lon="-1.26544">
        <ele>28.5</ele>
        <time>2020-07-28T08:38:49Z</time>
      </trkpt>
      <trkpt lat="47.09786" lon="-1.26541">
        <ele>28.5</ele>
        <time>2020-07-28T08:39:04Z</time>
      </trkpt>
      <trkpt lat="47.09801" lon="-1.2657">
        <ele>28.5</ele>
        <time>2020-07-28T08:39:23Z</time>
      </trkpt>
      <trkpt lat="47.09811" lon="-1.26594">
        <ele>28.5</ele>
        <time>2020-07-28T08:39:37Z</time>
      </trkpt>
      <trkpt lat="47.09816" lon="-1.26606">
        <ele>29.94</ele>
        <time>2020-07-28T08:39:46Z</time>
      </trkpt>
      <trkpt lat="47.09815" lon="-1.26629">
        <ele>29.94</ele>
        <time>2020-07-28T08:40:04Z</time>
      </trkpt>
      <trkpt lat="47.09808" lon="-1.26639">
        <ele>28.98</ele>
        <time>2020-07-28T08:40:20Z</time>
      </trkpt>
      <trkpt lat="47.09808" lon="-1.26639">
        <ele>28.98</ele>
        <time>2020-07-28T08:40:21Z</time>
      </trkpt>
      <trkpt lat="47.098" lon="-1.26631">
        <ele>28.98</ele>
        <time>2020-07-28T08:40:55Z</time>
      </trkpt>
      <trkpt lat="47.09795" lon="-1.26628">
        <ele>28.98</ele>
        <time>2020-07-28T08:41:34Z</time>
      </trkpt>
      <trkpt lat="47.09802" lon="-1.2663">
        <ele>28.98</ele>
        <time>2020-07-28T08:42:18Z</time>
      </trkpt>
      <trkpt lat="47.09801" lon="-1.26627">
        <ele>29.46</ele>
        <time>2020-07-28T08:42:52Z</time>
      </trkpt>
      <trkpt lat="47.09801" lon="-1.26621">
        <ele>29.94</ele>
        <time>2020-07-28T08:43:17Z</time>
      </trkpt>
      <trkpt lat="47.09802" lon="-1.26619">
        <ele>30.42</ele>
        <time>2020-07-28T08:43:49Z</time>
      </trkpt>
      <trkpt lat="47.09805" lon="-1.26621">
        <ele>30.9</ele>
        <time>2020-07-28T08:44:23Z</time>
      </trkpt>
      <trkpt lat="47.09801" lon="-1.26622">
        <ele>31.38</ele>
        <time>2020-07-28T08:44:56Z</time>
      </trkpt>
      <trkpt lat="47.098" lon="-1.26623">
        <ele>31.86</ele>
        <time>2020-07-28T08:45:29Z</time>
      </trkpt>
      <trkpt lat="47.09801" lon="-1.26621">
        <ele>32.34</ele>
        <time>2020-07-28T08:46:01Z</time>
      </trkpt>
      <trkpt lat="47.09796" lon="-1.26615">
        <ele>32.34</ele>
        <time>2020-07-28T08:46:37Z</time>
      </trkpt>
      <trkpt lat="47.09799" lon="-1.26621">
        <ele>32.82</ele>
        <time>2020-07-28T08:47:16Z</time>
      </trkpt>
      <trkpt lat="47.098" lon="-1.26624">
        <ele>33.3</ele>
        <time>2020-07-28T08:47:52Z</time>
      </trkpt>
      <trkpt lat="47.09797" lon="-1.26631">
        <ele>33.78</ele>
        <time>2020-07-28T08:48:14Z</time>
      </trkpt>
      <trkpt lat="47.09793" lon="-1.26651">
        <ele>33.78</ele>
        <time>2020-07-28T08:48:29Z</time>
      </trkpt>
      <trkpt lat="47.09793" lon="-1.26652">
        <ele>35.23</ele>
        <time>2020-07-28T08:48:31Z</time>
      </trkpt>
      <trkpt lat="47.09789" lon="-1.26661">
        <ele>35.23</ele>
        <time>2020-07-28T08:49:04Z</time>
      </trkpt>
      <trkpt lat="47.09789" lon="-1.26657">
        <ele>35.23</ele>
        <time>2020-07-28T08:49:34Z</time>
      </trkpt>
      <trkpt lat="47.09784" lon="-1.26662">
        <ele>35.71</ele>
        <time>2020-07-28T08:49:56Z</time>
      </trkpt>
      <trkpt lat="47.09781" lon="-1.26665">
        <ele>35.71</ele>
        <time>2020-07-28T08:50:00Z</time>
      </trkpt>
      <trkpt lat="47.09766" lon="-1.26681">
        <ele>35.71</ele>
        <time>2020-07-28T08:50:17Z</time>
      </trkpt>
      <trkpt lat="47.09759" lon="-1.26696">
        <ele>36.19</ele>
        <time>2020-07-28T08:50:33Z</time>
      </trkpt>
      <trkpt lat="47.09759" lon="-1.26697">
        <ele>36.19</ele>
        <time>2020-07-28T08:50:35Z</time>
      </trkpt>
      <trkpt lat="47.09747" lon="-1.26706">
        <ele>36.19</ele>
        <time>2020-07-28T08:50:49Z</time>
      </trkpt>
      <trkpt lat="47.09738" lon="-1.26715">
        <ele>36.67</ele>
        <time>2020-07-28T08:50:59Z</time>
      </trkpt>
      <trkpt lat="47.09733" lon="-1.26715">
        <ele>36.67</ele>
        <time>2020-07-28T08:51:03Z</time>
      </trkpt>
      <trkpt lat="47.09714" lon="-1.26721">
        <ele>36.67</ele>
        <time>2020-07-28T08:51:15Z</time>
      </trkpt>
      <trkpt lat="47.09705" lon="-1.26718">
        <ele>36.67</ele>
        <time>2020-07-28T08:51:23Z</time>
      </trkpt>
      <trkpt lat="47.09702" lon="-1.26709">
        <ele>37.15</ele>
        <time>2020-07-28T08:51:36Z</time>
      </trkpt>
      <trkpt lat="47.09702" lon="-1.2671">
        <ele>37.15</ele>
        <time>2020-07-28T08:52:25Z</time>
      </trkpt>
      <trkpt lat="47.09699" lon="-1.26713">
        <ele>37.63</ele>
        <time>2020-07-28T08:53:02Z</time>
      </trkpt>
      <trkpt lat="47.09692" lon="-1.26691">
        <ele>37.63</ele>
        <time>2020-07-28T08:53:15Z</time>
      </trkpt>
      <trkpt lat="47.09677" lon="-1.2668">
        <ele>37.63</ele>
        <time>2020-07-28T08:53:30Z</time>
      </trkpt>
      <trkpt lat="47.09659" lon="-1.26673">
        <ele>37.63</ele>
        <time>2020-07-28T08:53:47Z</time>
      </trkpt>
      <trkpt lat="47.0964" lon="-1.26695">
        <ele>36.67</ele>
        <time>2020-07-28T08:54:08Z</time>
      </trkpt>
      <trkpt lat="47.09623" lon="-1.26717">
        <ele>36.67</ele>
        <time>2020-07-28T08:54:28Z</time>
      </trkpt>
      <trkpt lat="47.09616" lon="-1.26724">
        <ele>38.11</ele>
        <time>2020-07-28T08:54:34Z</time>
      </trkpt>
      <trkpt lat="47.09598" lon="-1.26748">
        <ele>38.11</ele>
        <time>2020-07-28T08:54:56Z</time>
      </trkpt>
      <trkpt lat="47.09578" lon="-1.2677">
        <ele>38.11</ele>
        <time>2020-07-28T08:55:17Z</time>
      </trkpt>
      <trkpt lat="47.09561" lon="-1.26792">
        <ele>38.11</ele>
        <time>2020-07-28T08:55:36Z</time>
      </trkpt>
      <trkpt lat="47.09554" lon="-1.26805">
        <ele>38.59</ele>
        <time>2020-07-28T08:55:50Z</time>
      </trkpt>
      <trkpt lat="47.09552" lon="-1.26806">
        <ele>38.59</ele>
        <time>2020-07-28T08:56:07Z</time>
      </trkpt>
      <trkpt lat="47.09557" lon="-1.26815">
        <ele>38.59</ele>
        <time>2020-07-28T08:56:29Z</time>
      </trkpt>
      <trkpt lat="47.09557" lon="-1.2682">
        <ele>38.59</ele>
        <time>2020-07-28T08:56:33Z</time>
      </trkpt>
      <trkpt lat="47.09557" lon="-1.26827">
        <ele>38.59</ele>
        <time>2020-07-28T08:56:37Z</time>
      </trkpt>
      <trkpt lat="47.09567" lon="-1.26856">
        <ele>39.07</ele>
        <time>2020-07-28T08:56:56Z</time>
      </trkpt>
      <trkpt lat="47.09585" lon="-1.26888">
        <ele>39.55</ele>
        <time>2020-07-28T08:57:19Z</time>
      </trkpt>
      <trkpt lat="47.096" lon="-1.26917">
        <ele>39.55</ele>
        <time>2020-07-28T08:57:40Z</time>
      </trkpt>
      <trkpt lat="47.09615" lon="-1.26947">
        <ele>39.55</ele>
        <time>2020-07-28T08:58:00Z</time>
      </trkpt>
      <trkpt lat="47.09616" lon="-1.26951">
        <ele>39.55</ele>
        <time>2020-07-28T08:58:03Z</time>
      </trkpt>
      <trkpt lat="47.09633" lon="-1.26978">
        <ele>40.03</ele>
        <time>2020-07-28T08:58:23Z</time>
      </trkpt>
      <trkpt lat="47.09651" lon="-1.27008">
        <ele>40.51</ele>
        <time>2020-07-28T08:58:43Z</time>
      </trkpt>
      <trkpt lat="47.09662" lon="-1.27032">
        <ele>40.51</ele>
        <time>2020-07-28T08:58:59Z</time>
      </trkpt>
      <trkpt lat="47.09673" lon="-1.27059">
        <ele>40.51</ele>
        <time>2020-07-28T08:59:18Z</time>
      </trkpt>
      <trkpt lat="47.09681" lon="-1.2708">
        <ele>40.99</ele>
        <time>2020-07-28T08:59:34Z</time>
      </trkpt>
      <trkpt lat="47.09688" lon="-1.27114">
        <ele>40.99</ele>
        <time>2020-07-28T08:59:53Z</time>
      </trkpt>
      <trkpt lat="47.09687" lon="-1.27123">
        <ele>40.99</ele>
        <time>2020-07-28T08:59:58Z</time>
      </trkpt>
      <trkpt lat="47.0969" lon="-1.27135">
        <ele>41.47</ele>
        <time>2020-07-28T09:00:10Z</time>
      </trkpt>
      <trkpt lat="47.09686" lon="-1.2714">
        <ele>41.47</ele>
        <time>2020-07-28T09:00:16Z</time>
      </trkpt>
      <trkpt lat="47.09678" lon="-1.2715">
        <ele>41.47</ele>
        <time>2020-07-28T09:00:25Z</time>
      </trkpt>
      <trkpt lat="47.09678" lon="-1.27184">
        <ele>41.47</ele>
        <time>2020-07-28T09:00:45Z</time>
      </trkpt>
      <trkpt lat="47.09677" lon="-1.27189">
        <ele>40.03</ele>
        <time>2020-07-28T09:00:48Z</time>
      </trkpt>
      <trkpt lat="47.09676" lon="-1.2719">
        <ele>40.03</ele>
        <time>2020-07-28T09:00:49Z</time>
      </trkpt>
      <trkpt lat="47.09675" lon="-1.27201">
        <ele>40.03</ele>
        <time>2020-07-28T09:00:55Z</time>
      </trkpt>
      <trkpt lat="47.09678" lon="-1.27215">
        <ele>40.03</ele>
        <time>2020-07-28T09:01:03Z</time>
      </trkpt>
      <trkpt lat="47.09663" lon="-1.27237">
        <ele>40.51</ele>
        <time>2020-07-28T09:01:21Z</time>
      </trkpt>
      <trkpt lat="47.09661" lon="-1.27239">
        <ele>40.51</ele>
        <time>2020-07-28T09:01:23Z</time>
      </trkpt>
      <trkpt lat="47.09662" lon="-1.27249">
        <ele>41.47</ele>
        <time>2020-07-28T09:01:29Z</time>
      </trkpt>
      <trkpt lat="47.09683" lon="-1.27264">
        <ele>41.95</ele>
        <time>2020-07-28T09:01:48Z</time>
      </trkpt>
      <trkpt lat="47.09708" lon="-1.27273">
        <ele>41.95</ele>
        <time>2020-07-28T09:02:07Z</time>
      </trkpt>
      <trkpt lat="47.09728" lon="-1.27289">
        <ele>41.95</ele>
        <time>2020-07-28T09:02:25Z</time>
      </trkpt>
      <trkpt lat="47.09743" lon="-1.27316">
        <ele>41.95</ele>
        <time>2020-07-28T09:02:47Z</time>
      </trkpt>
      <trkpt lat="47.0976" lon="-1.27348">
        <ele>41.95</ele>
        <time>2020-07-28T09:03:11Z</time>
      </trkpt>
      <trkpt lat="47.09778" lon="-1.2738">
        <ele>41.95</ele>
        <time>2020-07-28T09:03:34Z</time>
      </trkpt>
      <trkpt lat="47.09792" lon="-1.27413">
        <ele>41.95</ele>
        <time>2020-07-28T09:03:55Z</time>
      </trkpt>
      <trkpt lat="47.09804" lon="-1.27438">
        <ele>41.95</ele>
        <time>2020-07-28T09:04:11Z</time>
      </trkpt>
      <trkpt lat="47.09819" lon="-1.2747">
        <ele>41.95</ele>
        <time>2020-07-28T09:04:34Z</time>
      </trkpt>
      <trkpt lat="47.09832" lon="-1.27506">
        <ele>41.95</ele>
        <time>2020-07-28T09:04:57Z</time>
      </trkpt>
      <trkpt lat="47.09846" lon="-1.27543">
        <ele>41.95</ele>
        <time>2020-07-28T09:05:21Z</time>
      </trkpt>
      <trkpt lat="47.09855" lon="-1.27569">
        <ele>41.95</ele>
        <time>2020-07-28T09:05:38Z</time>
      </trkpt>
      <trkpt lat="47.09856" lon="-1.27574">
        <ele>41.95</ele>
        <time>2020-07-28T09:05:41Z</time>
      </trkpt>
      <trkpt lat="47.09865" lon="-1.27609">
        <ele>41.95</ele>
        <time>2020-07-28T09:06:03Z</time>
      </trkpt>
      <trkpt lat="47.09872" lon="-1.27643">
        <ele>40.51</ele>
        <time>2020-07-28T09:06:23Z</time>
      </trkpt>
      <trkpt lat="47.09872" lon="-1.27645">
        <ele>40.51</ele>
        <time>2020-07-28T09:06:24Z</time>
      </trkpt>
      <trkpt lat="47.09866" lon="-1.27679">
        <ele>40.03</ele>
        <time>2020-07-28T09:06:45Z</time>
      </trkpt>
      <trkpt lat="47.09864" lon="-1.27679">
        <ele>40.03</ele>
        <time>2020-07-28T09:06:47Z</time>
      </trkpt>
      <trkpt lat="47.09843" lon="-1.27684">
        <ele>39.55</ele>
        <time>2020-07-28T09:07:06Z</time>
      </trkpt>
      <trkpt lat="47.0982" lon="-1.277">
        <ele>39.55</ele>
        <time>2020-07-28T09:07:23Z</time>
      </trkpt>
      <trkpt lat="47.09804" lon="-1.277">
        <ele>39.55</ele>
        <time>2020-07-28T09:07:37Z</time>
      </trkpt>
      <trkpt lat="47.09777" lon="-1.27695">
        <ele>39.55</ele>
        <time>2020-07-28T09:07:58Z</time>
      </trkpt>
      <trkpt lat="47.09751" lon="-1.27689">
        <ele>39.55</ele>
        <time>2020-07-28T09:08:19Z</time>
      </trkpt>
      <trkpt lat="47.09733" lon="-1.27687">
        <ele>39.55</ele>
        <time>2020-07-28T09:08:35Z</time>
      </trkpt>
      <trkpt lat="47.09713" lon="-1.27685">
        <ele>39.55</ele>
        <time>2020-07-28T09:08:52Z</time>
      </trkpt>
      <trkpt lat="47.09693" lon="-1.27684">
        <ele>40.03</ele>
        <time>2020-07-28T09:09:09Z</time>
      </trkpt>
      <trkpt lat="47.09675" lon="-1.2768">
        <ele>40.03</ele>
        <time>2020-07-28T09:09:28Z</time>
      </trkpt>
      <trkpt lat="47.09671" lon="-1.2768">
        <ele>40.03</ele>
        <time>2020-07-28T09:09:35Z</time>
      </trkpt>
      <trkpt lat="47.09668" lon="-1.27685">
        <ele>40.03</ele>
        <time>2020-07-28T09:09:39Z</time>
      </trkpt>
      <trkpt lat="47.0965" lon="-1.27703">
        <ele>40.03</ele>
        <time>2020-07-28T09:09:56Z</time>
      </trkpt>
      <trkpt lat="47.09642" lon="-1.27731">
        <ele>39.55</ele>
        <time>2020-07-28T09:10:14Z</time>
      </trkpt>
      <trkpt lat="47.0964" lon="-1.27738">
        <ele>39.55</ele>
        <time>2020-07-28T09:10:27Z</time>
      </trkpt>
      <trkpt lat="47.09632" lon="-1.27771">
        <ele>39.55</ele>
        <time>2020-07-28T09:10:47Z</time>
      </trkpt>
      <trkpt lat="47.09628" lon="-1.27809">
        <ele>39.55</ele>
        <time>2020-07-28T09:11:09Z</time>
      </trkpt>
      <trkpt lat="47.0963" lon="-1.27839">
        <ele>39.55</ele>
        <time>2020-07-28T09:11:27Z</time>
      </trkpt>
      <trkpt lat="47.0963" lon="-1.27872">
        <ele>39.55</ele>
        <time>2020-07-28T09:11:45Z</time>
      </trkpt>
      <trkpt lat="47.09632" lon="-1.27902">
        <ele>39.55</ele>
        <time>2020-07-28T09:12:02Z</time>
      </trkpt>
      <trkpt lat="47.09633" lon="-1.27925">
        <ele>39.55</ele>
        <time>2020-07-28T09:12:14Z</time>
      </trkpt>
      <trkpt lat="47.09632" lon="-1.27964">
        <ele>39.55</ele>
        <time>2020-07-28T09:12:35Z</time>
      </trkpt>
      <trkpt lat="47.09627" lon="-1.27991">
        <ele>39.07</ele>
        <time>2020-07-28T09:12:51Z</time>
      </trkpt>
      <trkpt lat="47.09618" lon="-1.28027">
        <ele>39.07</ele>
        <time>2020-07-28T09:13:11Z</time>
      </trkpt>
      <trkpt lat="47.09608" lon="-1.2805">
        <ele>39.07</ele>
        <time>2020-07-28T09:13:27Z</time>
      </trkpt>
      <trkpt lat="47.09598" lon="-1.28068">
        <ele>39.07</ele>
        <time>2020-07-28T09:13:40Z</time>
      </trkpt>
      <trkpt lat="47.09589" lon="-1.28096">
        <ele>39.07</ele>
        <time>2020-07-28T09:13:58Z</time>
      </trkpt>
      <trkpt lat="47.09576" lon="-1.2813">
        <ele>39.07</ele>
        <time>2020-07-28T09:14:19Z</time>
      </trkpt>
      <trkpt lat="47.09563" lon="-1.28143">
        <ele>39.07</ele>
        <time>2020-07-28T09:14:32Z</time>
      </trkpt>
      <trkpt lat="47.09563" lon="-1.28166">
        <ele>39.07</ele>
        <time>2020-07-28T09:14:46Z</time>
      </trkpt>
      <trkpt lat="47.09571" lon="-1.28181">
        <ele>39.07</ele>
        <time>2020-07-28T09:14:58Z</time>
      </trkpt>
      <trkpt lat="47.09571" lon="-1.28187">
        <ele>39.07</ele>
        <time>2020-07-28T09:15:02Z</time>
      </trkpt>
      <trkpt lat="47.09565" lon="-1.28209">
        <ele>39.07</ele>
        <time>2020-07-28T09:15:16Z</time>
      </trkpt>
      <trkpt lat="47.0956" lon="-1.28234">
        <ele>39.07</ele>
        <time>2020-07-28T09:15:29Z</time>
      </trkpt>
      <trkpt lat="47.09556" lon="-1.28257">
        <ele>38.59</ele>
        <time>2020-07-28T09:15:44Z</time>
      </trkpt>
      <trkpt lat="47.09548" lon="-1.28291">
        <ele>38.59</ele>
        <time>2020-07-28T09:16:02Z</time>
      </trkpt>
      <trkpt lat="47.09542" lon="-1.28317">
        <ele>38.11</ele>
        <time>2020-07-28T09:16:17Z</time>
      </trkpt>
      <trkpt lat="47.09534" lon="-1.28343">
        <ele>37.15</ele>
        <time>2020-07-28T09:16:34Z</time>
      </trkpt>
      <trkpt lat="47.09524" lon="-1.28371">
        <ele>36.19</ele>
        <time>2020-07-28T09:16:49Z</time>
      </trkpt>
      <trkpt lat="47.09518" lon="-1.28393">
        <ele>35.23</ele>
        <time>2020-07-28T09:17:01Z</time>
      </trkpt>
      <trkpt lat="47.09502" lon="-1.28412">
        <ele>33.3</ele>
        <time>2020-07-28T09:17:19Z</time>
      </trkpt>
      <trkpt lat="47.09486" lon="-1.28409">
        <ele>32.82</ele>
        <time>2020-07-28T09:17:34Z</time>
      </trkpt>
      <trkpt lat="47.09466" lon="-1.28401">
        <ele>30.9</ele>
        <time>2020-07-28T09:17:51Z</time>
      </trkpt>
      <trkpt lat="47.09442" lon="-1.28393">
        <ele>30.42</ele>
        <time>2020-07-28T09:18:07Z</time>
      </trkpt>
      <trkpt lat="47.09419" lon="-1.28384">
        <ele>31.86</ele>
        <time>2020-07-28T09:18:26Z</time>
      </trkpt>
      <trkpt lat="47.09402" lon="-1.28374">
        <ele>30.42</ele>
        <time>2020-07-28T09:18:44Z</time>
      </trkpt>
      <trkpt lat="47.094" lon="-1.28374">
        <ele>30.42</ele>
        <time>2020-07-28T09:18:45Z</time>
      </trkpt>
      <trkpt lat="47.09399" lon="-1.28373">
        <ele>30.42</ele>
        <time>2020-07-28T09:18:46Z</time>
      </trkpt>
      <trkpt lat="47.09398" lon="-1.28374">
        <ele>29.94</ele>
        <time>2020-07-28T09:18:47Z</time>
      </trkpt>
      <trkpt lat="47.09396" lon="-1.28374">
        <ele>29.94</ele>
        <time>2020-07-28T09:18:48Z</time>
      </trkpt>
      <trkpt lat="47.09395" lon="-1.28375">
        <ele>29.94</ele>
        <time>2020-07-28T09:18:49Z</time>
      </trkpt>
      <trkpt lat="47.09393" lon="-1.28377">
        <ele>29.94</ele>
        <time>2020-07-28T09:18:51Z</time>
      </trkpt>
      <trkpt lat="47.09385" lon="-1.28386">
        <ele>26.57</ele>
        <time>2020-07-28T09:19:04Z</time>
      </trkpt>
      <trkpt lat="47.09383" lon="-1.28384">
        <ele>26.09</ele>
        <time>2020-07-28T09:19:06Z</time>
      </trkpt>
      <trkpt lat="47.0937" lon="-1.28376">
        <ele>22.73</ele>
        <time>2020-07-28T09:19:19Z</time>
      </trkpt>
      <trkpt lat="47.09368" lon="-1.28384">
        <ele>19.36</ele>
        <time>2020-07-28T09:19:34Z</time>
      </trkpt>
      <trkpt lat="47.09373" lon="-1.284">
        <ele>16.48</ele>
        <time>2020-07-28T09:19:48Z</time>
      </trkpt>
      <trkpt lat="47.09373" lon="-1.2841">
        <ele>13.12</ele>
        <time>2020-07-28T09:20:02Z</time>
      </trkpt>
      <trkpt lat="47.09367" lon="-1.28417">
        <ele>11.67</ele>
        <time>2020-07-28T09:20:09Z</time>
      </trkpt>
      <trkpt lat="47.09357" lon="-1.28417">
        <ele>12.15</ele>
        <time>2020-07-28T09:20:24Z</time>
      </trkpt>
      <trkpt lat="47.09359" lon="-1.2842">
        <ele>12.15</ele>
        <time>2020-07-28T09:20:37Z</time>
      </trkpt>
      <trkpt lat="47.09351" lon="-1.28437">
        <ele>14.08</ele>
        <time>2020-07-28T09:30:10Z</time>
      </trkpt>
      <trkpt lat="47.0935" lon="-1.28435">
        <ele>14.08</ele>
        <time>2020-07-28T09:30:11Z</time>
      </trkpt>
      <trkpt lat="47.09347" lon="-1.28428">
        <ele>14.08</ele>
        <time>2020-07-28T09:30:14Z</time>
      </trkpt>
      <trkpt lat="47.09337" lon="-1.28407">
        <ele>14.08</ele>
        <time>2020-07-28T09:30:29Z</time>
      </trkpt>
      <trkpt lat="47.09334" lon="-1.28403">
        <ele>14.08</ele>
        <time>2020-07-28T09:30:33Z</time>
      </trkpt>
      <trkpt lat="47.09326" lon="-1.28384">
        <ele>14.08</ele>
        <time>2020-07-28T09:30:47Z</time>
      </trkpt>
      <trkpt lat="47.09315" lon="-1.28364">
        <ele>14.08</ele>
        <time>2020-07-28T09:31:02Z</time>
      </trkpt>
      <trkpt lat="47.09303" lon="-1.2835">
        <ele>14.08</ele>
        <time>2020-07-28T09:31:15Z</time>
      </trkpt>
      <trkpt lat="47.0929" lon="-1.2834">
        <ele>14.08</ele>
        <time>2020-07-28T09:31:29Z</time>
      </trkpt>
      <trkpt lat="47.09274" lon="-1.28323">
        <ele>14.08</ele>
        <time>2020-07-28T09:31:44Z</time>
      </trkpt>
      <trkpt lat="47.09254" lon="-1.28302">
        <ele>16</ele>
        <time>2020-07-28T09:32:06Z</time>
      </trkpt>
      <trkpt lat="47.09234" lon="-1.28287">
        <ele>16.96</ele>
        <time>2020-07-28T09:32:23Z</time>
      </trkpt>
      <trkpt lat="47.09222" lon="-1.28272">
        <ele>17.44</ele>
        <time>2020-07-28T09:32:38Z</time>
      </trkpt>
      <trkpt lat="47.09209" lon="-1.28251">
        <ele>18.4</ele>
        <time>2020-07-28T09:32:53Z</time>
      </trkpt>
      <trkpt lat="47.09202" lon="-1.28228">
        <ele>20.32</ele>
        <time>2020-07-28T09:33:10Z</time>
      </trkpt>
      <trkpt lat="47.09204" lon="-1.28216">
        <ele>21.29</ele>
        <time>2020-07-28T09:33:20Z</time>
      </trkpt>
      <trkpt lat="47.09212" lon="-1.28191">
        <ele>23.21</ele>
        <time>2020-07-28T09:33:42Z</time>
      </trkpt>
      <trkpt lat="47.09216" lon="-1.28164">
        <ele>24.65</ele>
        <time>2020-07-28T09:33:59Z</time>
      </trkpt>
      <trkpt lat="47.09212" lon="-1.28156">
        <ele>25.61</ele>
        <time>2020-07-28T09:34:13Z</time>
      </trkpt>
      <trkpt lat="47.09206" lon="-1.28155">
        <ele>25.61</ele>
        <time>2020-07-28T09:34:21Z</time>
      </trkpt>
      <trkpt lat="47.09202" lon="-1.28156">
        <ele>25.61</ele>
        <time>2020-07-28T09:34:25Z</time>
      </trkpt>
      <trkpt lat="47.09199" lon="-1.28158">
        <ele>25.61</ele>
        <time>2020-07-28T09:34:29Z</time>
      </trkpt>
      <trkpt lat="47.09191" lon="-1.2816">
        <ele>24.17</ele>
        <time>2020-07-28T09:34:35Z</time>
      </trkpt>
      <trkpt lat="47.0917" lon="-1.28148">
        <ele>23.21</ele>
        <time>2020-07-28T09:34:52Z</time>
      </trkpt>
      <trkpt lat="47.09149" lon="-1.28134">
        <ele>21.29</ele>
        <time>2020-07-28T09:35:11Z</time>
      </trkpt>
      <trkpt lat="47.09135" lon="-1.28122">
        <ele>20.32</ele>
        <time>2020-07-28T09:35:27Z</time>
      </trkpt>
      <trkpt lat="47.09121" lon="-1.28109">
        <ele>19.36</ele>
        <time>2020-07-28T09:35:40Z</time>
      </trkpt>
      <trkpt lat="47.09101" lon="-1.28099">
        <ele>19.36</ele>
        <time>2020-07-28T09:35:54Z</time>
      </trkpt>
      <trkpt lat="47.09085" lon="-1.28099">
        <ele>18.88</ele>
        <time>2020-07-28T09:36:08Z</time>
      </trkpt>
      <trkpt lat="47.09076" lon="-1.28105">
        <ele>17.92</ele>
        <time>2020-07-28T09:36:19Z</time>
      </trkpt>
      <trkpt lat="47.09064" lon="-1.28128">
        <ele>17.92</ele>
        <time>2020-07-28T09:36:32Z</time>
      </trkpt>
      <trkpt lat="47.09064" lon="-1.28129">
        <ele>17.92</ele>
        <time>2020-07-28T09:36:33Z</time>
      </trkpt>
      <trkpt lat="47.09054" lon="-1.28153">
        <ele>17.92</ele>
        <time>2020-07-28T09:36:51Z</time>
      </trkpt>
      <trkpt lat="47.09048" lon="-1.28156">
        <ele>17.92</ele>
        <time>2020-07-28T09:37:12Z</time>
      </trkpt>
      <trkpt lat="47.09046" lon="-1.28173">
        <ele>17.92</ele>
        <time>2020-07-28T09:37:30Z</time>
      </trkpt>
      <trkpt lat="47.0904" lon="-1.28199">
        <ele>17.92</ele>
        <time>2020-07-28T09:37:48Z</time>
      </trkpt>
      <trkpt lat="47.09032" lon="-1.28221">
        <ele>17.92</ele>
        <time>2020-07-28T09:38:04Z</time>
      </trkpt>
      <trkpt lat="47.09025" lon="-1.28237">
        <ele>16.96</ele>
        <time>2020-07-28T09:38:24Z</time>
      </trkpt>
      <trkpt lat="47.09023" lon="-1.28248">
        <ele>18.4</ele>
        <time>2020-07-28T09:38:40Z</time>
      </trkpt>
      <trkpt lat="47.09024" lon="-1.28251">
        <ele>18.4</ele>
        <time>2020-07-28T09:39:10Z</time>
      </trkpt>
      <trkpt lat="47.09022" lon="-1.28254">
        <ele>17.92</ele>
        <time>2020-07-28T09:39:43Z</time>
      </trkpt>
      <trkpt lat="47.09021" lon="-1.28266">
        <ele>17.44</ele>
        <time>2020-07-28T09:39:52Z</time>
      </trkpt>
      <trkpt lat="47.09015" lon="-1.28272">
        <ele>18.88</ele>
        <time>2020-07-28T09:40:05Z</time>
      </trkpt>
      <trkpt lat="47.09009" lon="-1.28267">
        <ele>21.29</ele>
        <time>2020-07-28T09:40:21Z</time>
      </trkpt>
      <trkpt lat="47.09" lon="-1.28264">
        <ele>21.77</ele>
        <time>2020-07-28T09:40:38Z</time>
      </trkpt>
      <trkpt lat="47.08988" lon="-1.28261">
        <ele>25.13</ele>
        <time>2020-07-28T09:40:56Z</time>
      </trkpt>
      <trkpt lat="47.08978" lon="-1.28266">
        <ele>27.05</ele>
        <time>2020-07-28T09:41:14Z</time>
      </trkpt>
      <trkpt lat="47.08971" lon="-1.28279">
        <ele>29.94</ele>
        <time>2020-07-28T09:41:30Z</time>
      </trkpt>
      <trkpt lat="47.08963" lon="-1.28287">
        <ele>30.9</ele>
        <time>2020-07-28T09:41:44Z</time>
      </trkpt>
      <trkpt lat="47.08948" lon="-1.28284">
        <ele>32.34</ele>
        <time>2020-07-28T09:42:00Z</time>
      </trkpt>
      <trkpt lat="47.08936" lon="-1.2828">
        <ele>32.34</ele>
        <time>2020-07-28T09:42:12Z</time>
      </trkpt>
      <trkpt lat="47.08911" lon="-1.28277">
        <ele>32.34</ele>
        <time>2020-07-28T09:42:30Z</time>
      </trkpt>
      <trkpt lat="47.08895" lon="-1.28289">
        <ele>32.82</ele>
        <time>2020-07-28T09:42:46Z</time>
      </trkpt>
      <trkpt lat="47.08883" lon="-1.28306">
        <ele>34.74</ele>
        <time>2020-07-28T09:43:03Z</time>
      </trkpt>
      <trkpt lat="47.08868" lon="-1.28328">
        <ele>35.23</ele>
        <time>2020-07-28T09:43:19Z</time>
      </trkpt>
      <trkpt lat="47.08865" lon="-1.28326">
        <ele>35.23</ele>
        <time>2020-07-28T09:43:22Z</time>
      </trkpt>
      <trkpt lat="47.08855" lon="-1.28305">
        <ele>35.23</ele>
        <time>2020-07-28T09:43:38Z</time>
      </trkpt>
      <trkpt lat="47.08841" lon="-1.2829">
        <ele>35.23</ele>
        <time>2020-07-28T09:43:52Z</time>
      </trkpt>
      <trkpt lat="47.0883" lon="-1.28275">
        <ele>34.26</ele>
        <time>2020-07-28T09:44:05Z</time>
      </trkpt>
      <trkpt lat="47.0882" lon="-1.28269">
        <ele>34.26</ele>
        <time>2020-07-28T09:44:16Z</time>
      </trkpt>
      <trkpt lat="47.08807" lon="-1.28272">
        <ele>34.26</ele>
        <time>2020-07-28T09:44:31Z</time>
      </trkpt>
      <trkpt lat="47.08794" lon="-1.2826">
        <ele>34.26</ele>
        <time>2020-07-28T09:44:46Z</time>
      </trkpt>
      <trkpt lat="47.08793" lon="-1.28259">
        <ele>34.26</ele>
        <time>2020-07-28T09:44:47Z</time>
      </trkpt>
      <trkpt lat="47.08783" lon="-1.28254">
        <ele>34.26</ele>
        <time>2020-07-28T09:44:55Z</time>
      </trkpt>
      <trkpt lat="47.08777" lon="-1.28251">
        <ele>33.78</ele>
        <time>2020-07-28T09:45:00Z</time>
      </trkpt>
      <trkpt lat="47.08775" lon="-1.2825">
        <ele>33.78</ele>
        <time>2020-07-28T09:45:02Z</time>
      </trkpt>
      <trkpt lat="47.08772" lon="-1.28249">
        <ele>35.23</ele>
        <time>2020-07-28T09:45:05Z</time>
      </trkpt>
      <trkpt lat="47.08753" lon="-1.28248">
        <ele>35.71</ele>
        <time>2020-07-28T09:45:22Z</time>
      </trkpt>
      <trkpt lat="47.08739" lon="-1.28244">
        <ele>36.19</ele>
        <time>2020-07-28T09:45:36Z</time>
      </trkpt>
      <trkpt lat="47.08729" lon="-1.28235">
        <ele>36.19</ele>
        <time>2020-07-28T09:45:53Z</time>
      </trkpt>
      <trkpt lat="47.08734" lon="-1.28203">
        <ele>34.26</ele>
        <time>2020-07-28T09:46:16Z</time>
      </trkpt>
      <trkpt lat="47.08743" lon="-1.2817">
        <ele>31.86</ele>
        <time>2020-07-28T09:46:32Z</time>
      </trkpt>
      <trkpt lat="47.08743" lon="-1.28164">
        <ele>30.9</ele>
        <time>2020-07-28T09:46:36Z</time>
      </trkpt>
      <trkpt lat="47.08748" lon="-1.28137">
        <ele>28.98</ele>
        <time>2020-07-28T09:46:54Z</time>
      </trkpt>
      <trkpt lat="47.08752" lon="-1.28136">
        <ele>28.5</ele>
        <time>2020-07-28T09:47:07Z</time>
      </trkpt>
      <trkpt lat="47.08752" lon="-1.28133">
        <ele>28.5</ele>
        <time>2020-07-28T09:47:14Z</time>
      </trkpt>
      <trkpt lat="47.08741" lon="-1.28116">
        <ele>25.13</ele>
        <time>2020-07-28T09:47:27Z</time>
      </trkpt>
      <trkpt lat="47.08731" lon="-1.28101">
        <ele>21.77</ele>
        <time>2020-07-28T09:47:41Z</time>
      </trkpt>
      <trkpt lat="47.08731" lon="-1.281">
        <ele>21.29</ele>
        <time>2020-07-28T09:47:42Z</time>
      </trkpt>
      <trkpt lat="47.08722" lon="-1.28091">
        <ele>18.4</ele>
        <time>2020-07-28T09:47:54Z</time>
      </trkpt>
      <trkpt lat="47.08717" lon="-1.28082">
        <ele>16.96</ele>
        <time>2020-07-28T09:48:04Z</time>
      </trkpt>
      <trkpt lat="47.08706" lon="-1.28077">
        <ele>16.48</ele>
        <time>2020-07-28T09:48:16Z</time>
      </trkpt>
      <trkpt lat="47.08695" lon="-1.28067">
        <ele>16</ele>
        <time>2020-07-28T09:48:26Z</time>
      </trkpt>
      <trkpt lat="47.08679" lon="-1.28057">
        <ele>13.6</ele>
        <time>2020-07-28T09:48:40Z</time>
      </trkpt>
      <trkpt lat="47.08678" lon="-1.28037">
        <ele>12.63</ele>
        <time>2020-07-28T09:48:52Z</time>
      </trkpt>
      <trkpt lat="47.08675" lon="-1.28006">
        <ele>12.15</ele>
        <time>2020-07-28T09:49:07Z</time>
      </trkpt>
      <trkpt lat="47.08654" lon="-1.27985">
        <ele>11.67</ele>
        <time>2020-07-28T09:49:24Z</time>
      </trkpt>
      <trkpt lat="47.08633" lon="-1.27985">
        <ele>11.67</ele>
        <time>2020-07-28T09:49:41Z</time>
      </trkpt>
      <trkpt lat="47.08608" lon="-1.27984">
        <ele>13.12</ele>
        <time>2020-07-28T09:50:00Z</time>
      </trkpt>
      <trkpt lat="47.08607" lon="-1.27983">
        <ele>13.12</ele>
        <time>2020-07-28T09:50:01Z</time>
      </trkpt>
      <trkpt lat="47.08581" lon="-1.27964">
        <ele>15.04</ele>
        <time>2020-07-28T09:50:23Z</time>
      </trkpt>
      <trkpt lat="47.08568" lon="-1.27953">
        <ele>15.52</ele>
        <time>2020-07-28T09:50:37Z</time>
      </trkpt>
      <trkpt lat="47.08561" lon="-1.27947">
        <ele>16</ele>
        <time>2020-07-28T09:50:45Z</time>
      </trkpt>
      <trkpt lat="47.08561" lon="-1.27944">
        <ele>16</ele>
        <time>2020-07-28T09:50:47Z</time>
      </trkpt>
      <trkpt lat="47.08551" lon="-1.27923">
        <ele>16</ele>
        <time>2020-07-28T09:51:04Z</time>
      </trkpt>
      <trkpt lat="47.08556" lon="-1.27913">
        <ele>14.56</ele>
        <time>2020-07-28T09:51:10Z</time>
      </trkpt>
      <trkpt lat="47.08565" lon="-1.27883">
        <ele>12.63</ele>
        <time>2020-07-28T09:51:28Z</time>
      </trkpt>
      <trkpt lat="47.08565" lon="-1.27882">
        <ele>12.63</ele>
        <time>2020-07-28T09:51:29Z</time>
      </trkpt>
      <trkpt lat="47.0856" lon="-1.27861">
        <ele>11.19</ele>
        <time>2020-07-28T09:51:42Z</time>
      </trkpt>
      <trkpt lat="47.0855" lon="-1.2784">
        <ele>10.71</ele>
        <time>2020-07-28T09:51:59Z</time>
      </trkpt>
      <trkpt lat="47.08543" lon="-1.27831">
        <ele>10.71</ele>
        <time>2020-07-28T09:52:09Z</time>
      </trkpt>
      <trkpt lat="47.08526" lon="-1.2781">
        <ele>10.71</ele>
        <time>2020-07-28T09:52:25Z</time>
      </trkpt>
      <trkpt lat="47.08509" lon="-1.27794">
        <ele>10.71</ele>
        <time>2020-07-28T09:52:42Z</time>
      </trkpt>
      <trkpt lat="47.08495" lon="-1.2778">
        <ele>10.71</ele>
        <time>2020-07-28T09:52:57Z</time>
      </trkpt>
      <trkpt lat="47.08477" lon="-1.27765">
        <ele>10.71</ele>
        <time>2020-07-28T09:53:12Z</time>
      </trkpt>
      <trkpt lat="47.08461" lon="-1.27759">
        <ele>13.6</ele>
        <time>2020-07-28T09:53:30Z</time>
      </trkpt>
      <trkpt lat="47.08454" lon="-1.27755">
        <ele>12.15</ele>
        <time>2020-07-28T09:53:42Z</time>
      </trkpt>
      <trkpt lat="47.08446" lon="-1.27739">
        <ele>10.23</ele>
        <time>2020-07-28T09:53:59Z</time>
      </trkpt>
      <trkpt lat="47.08433" lon="-1.27722">
        <ele>9.27</ele>
        <time>2020-07-28T09:54:17Z</time>
      </trkpt>
      <trkpt lat="47.08431" lon="-1.2772">
        <ele>9.27</ele>
        <time>2020-07-28T09:54:19Z</time>
      </trkpt>
      <trkpt lat="47.08409" lon="-1.277">
        <ele>9.27</ele>
        <time>2020-07-28T09:54:38Z</time>
      </trkpt>
      <trkpt lat="47.08404" lon="-1.27696">
        <ele>9.27</ele>
        <time>2020-07-28T09:54:42Z</time>
      </trkpt>
      <trkpt lat="47.08384" lon="-1.27682">
        <ele>8.79</ele>
        <time>2020-07-28T09:55:00Z</time>
      </trkpt>
      <trkpt lat="47.08379" lon="-1.27677">
        <ele>8.79</ele>
        <time>2020-07-28T09:55:06Z</time>
      </trkpt>
      <trkpt lat="47.0836" lon="-1.27661">
        <ele>8.79</ele>
        <time>2020-07-28T09:55:25Z</time>
      </trkpt>
      <trkpt lat="47.08353" lon="-1.27656">
        <ele>8.79</ele>
        <time>2020-07-28T09:55:32Z</time>
      </trkpt>
      <trkpt lat="47.08335" lon="-1.27643">
        <ele>8.79</ele>
        <time>2020-07-28T09:55:51Z</time>
      </trkpt>
      <trkpt lat="47.08316" lon="-1.27636">
        <ele>8.31</ele>
        <time>2020-07-28T09:56:08Z</time>
      </trkpt>
      <trkpt lat="47.08304" lon="-1.27631">
        <ele>9.75</ele>
        <time>2020-07-28T09:56:20Z</time>
      </trkpt>
      <trkpt lat="47.08288" lon="-1.27614">
        <ele>9.75</ele>
        <time>2020-07-28T09:56:37Z</time>
      </trkpt>
      <trkpt lat="47.08276" lon="-1.27594">
        <ele>9.27</ele>
        <time>2020-07-28T09:56:52Z</time>
      </trkpt>
      <trkpt lat="47.08269" lon="-1.27569">
        <ele>9.27</ele>
        <time>2020-07-28T09:57:07Z</time>
      </trkpt>
      <trkpt lat="47.08267" lon="-1.27543">
        <ele>7.83</ele>
        <time>2020-07-28T09:57:23Z</time>
      </trkpt>
      <trkpt lat="47.08273" lon="-1.27519">
        <ele>7.83</ele>
        <time>2020-07-28T09:57:38Z</time>
      </trkpt>
      <trkpt lat="47.08278" lon="-1.27495">
        <ele>7.83</ele>
        <time>2020-07-28T09:57:53Z</time>
      </trkpt>
      <trkpt lat="47.08285" lon="-1.27474">
        <ele>7.83</ele>
        <time>2020-07-28T09:58:07Z</time>
      </trkpt>
      <trkpt lat="47.08287" lon="-1.27467">
        <ele>7.83</ele>
        <time>2020-07-28T09:58:11Z</time>
      </trkpt>
      <trkpt lat="47.08297" lon="-1.27435">
        <ele>7.83</ele>
        <time>2020-07-28T09:58:27Z</time>
      </trkpt>
      <trkpt lat="47.08301" lon="-1.27407">
        <ele>7.35</ele>
        <time>2020-07-28T09:58:42Z</time>
      </trkpt>
      <trkpt lat="47.08301" lon="-1.27404">
        <ele>7.35</ele>
        <time>2020-07-28T09:58:43Z</time>
      </trkpt>
      <trkpt lat="47.0829" lon="-1.27376">
        <ele>7.35</ele>
        <time>2020-07-28T09:58:59Z</time>
      </trkpt>
      <trkpt lat="47.08285" lon="-1.27354">
        <ele>7.35</ele>
        <time>2020-07-28T09:59:13Z</time>
      </trkpt>
      <trkpt lat="47.08284" lon="-1.27331">
        <ele>7.35</ele>
        <time>2020-07-28T09:59:28Z</time>
      </trkpt>
      <trkpt lat="47.08281" lon="-1.27299">
        <ele>7.35</ele>
        <time>2020-07-28T09:59:46Z</time>
      </trkpt>
      <trkpt lat="47.08279" lon="-1.27274">
        <ele>7.35</ele>
        <time>2020-07-28T10:00:01Z</time>
      </trkpt>
      <trkpt lat="47.08283" lon="-1.27251">
        <ele>7.35</ele>
        <time>2020-07-28T10:00:16Z</time>
      </trkpt>
      <trkpt lat="47.08285" lon="-1.27241">
        <ele>7.35</ele>
        <time>2020-07-28T10:00:21Z</time>
      </trkpt>
      <trkpt lat="47.08294" lon="-1.27213">
        <ele>7.35</ele>
        <time>2020-07-28T10:00:36Z</time>
      </trkpt>
      <trkpt lat="47.08297" lon="-1.27191">
        <ele>7.35</ele>
        <time>2020-07-28T10:00:49Z</time>
      </trkpt>
      <trkpt lat="47.083" lon="-1.27174">
        <ele>8.31</ele>
        <time>2020-07-28T10:01:02Z</time>
      </trkpt>
      <trkpt lat="47.08306" lon="-1.27154">
        <ele>8.79</ele>
        <time>2020-07-28T10:01:22Z</time>
      </trkpt>
      <trkpt lat="47.08318" lon="-1.27129">
        <ele>8.79</ele>
        <time>2020-07-28T10:01:40Z</time>
      </trkpt>
      <trkpt lat="47.08329" lon="-1.27106">
        <ele>7.83</ele>
        <time>2020-07-28T10:01:54Z</time>
      </trkpt>
      <trkpt lat="47.08343" lon="-1.27088">
        <ele>7.83</ele>
        <time>2020-07-28T10:02:09Z</time>
      </trkpt>
      <trkpt lat="47.08356" lon="-1.27079">
        <ele>7.83</ele>
        <time>2020-07-28T10:02:24Z</time>
      </trkpt>
      <trkpt lat="47.08367" lon="-1.27072">
        <ele>8.79</ele>
        <time>2020-07-28T10:02:35Z</time>
      </trkpt>
      <trkpt lat="47.08369" lon="-1.27066">
        <ele>8.79</ele>
        <time>2020-07-28T10:02:59Z</time>
      </trkpt>
      <trkpt lat="47.08379" lon="-1.27056">
        <ele>9.27</ele>
        <time>2020-07-28T10:03:20Z</time>
      </trkpt>
      <trkpt lat="47.08386" lon="-1.27035">
        <ele>9.75</ele>
        <time>2020-07-28T10:03:36Z</time>
      </trkpt>
      <trkpt lat="47.08391" lon="-1.2701">
        <ele>10.71</ele>
        <time>2020-07-28T10:03:52Z</time>
      </trkpt>
      <trkpt lat="47.08402" lon="-1.26988">
        <ele>11.19</ele>
        <time>2020-07-28T10:04:06Z</time>
      </trkpt>
      <trkpt lat="47.08415" lon="-1.2697">
        <ele>9.27</ele>
        <time>2020-07-28T10:04:23Z</time>
      </trkpt>
      <trkpt lat="47.08424" lon="-1.26956">
        <ele>8.31</ele>
        <time>2020-07-28T10:04:36Z</time>
      </trkpt>
      <trkpt lat="47.08437" lon="-1.26948">
        <ele>8.31</ele>
        <time>2020-07-28T10:04:51Z</time>
      </trkpt>
      <trkpt lat="47.08445" lon="-1.26946">
        <ele>8.31</ele>
        <time>2020-07-28T10:04:58Z</time>
      </trkpt>
      <trkpt lat="47.08457" lon="-1.26929">
        <ele>7.83</ele>
        <time>2020-07-28T10:05:13Z</time>
      </trkpt>
      <trkpt lat="47.08456" lon="-1.26917">
        <ele>8.79</ele>
        <time>2020-07-28T10:05:21Z</time>
      </trkpt>
      <trkpt lat="47.08454" lon="-1.26891">
        <ele>9.27</ele>
        <time>2020-07-28T10:05:36Z</time>
      </trkpt>
      <trkpt lat="47.0845" lon="-1.2686">
        <ele>7.83</ele>
        <time>2020-07-28T10:05:52Z</time>
      </trkpt>
      <trkpt lat="47.08439" lon="-1.26836">
        <ele>7.83</ele>
        <time>2020-07-28T10:06:08Z</time>
      </trkpt>
      <trkpt lat="47.08425" lon="-1.2681">
        <ele>7.83</ele>
        <time>2020-07-28T10:06:25Z</time>
      </trkpt>
      <trkpt lat="47.08411" lon="-1.26791">
        <ele>7.83</ele>
        <time>2020-07-28T10:06:41Z</time>
      </trkpt>
      <trkpt lat="47.08393" lon="-1.26765">
        <ele>7.83</ele>
        <time>2020-07-28T10:07:02Z</time>
      </trkpt>
      <trkpt lat="47.0838" lon="-1.2675">
        <ele>7.35</ele>
        <time>2020-07-28T10:07:17Z</time>
      </trkpt>
      <trkpt lat="47.08364" lon="-1.26738">
        <ele>7.35</ele>
        <time>2020-07-28T10:07:33Z</time>
      </trkpt>
      <trkpt lat="47.08351" lon="-1.26717">
        <ele>7.35</ele>
        <time>2020-07-28T10:07:49Z</time>
      </trkpt>
      <trkpt lat="47.0834" lon="-1.26699">
        <ele>8.31</ele>
        <time>2020-07-28T10:08:00Z</time>
      </trkpt>
      <trkpt lat="47.08324" lon="-1.26674">
        <ele>9.27</ele>
        <time>2020-07-28T10:08:17Z</time>
      </trkpt>
      <trkpt lat="47.08309" lon="-1.26656">
        <ele>10.23</ele>
        <time>2020-07-28T10:08:32Z</time>
      </trkpt>
      <trkpt lat="47.08293" lon="-1.26639">
        <ele>11.67</ele>
        <time>2020-07-28T10:08:49Z</time>
      </trkpt>
      <trkpt lat="47.08276" lon="-1.2662">
        <ele>14.08</ele>
        <time>2020-07-28T10:09:08Z</time>
      </trkpt>
      <trkpt lat="47.08262" lon="-1.26607">
        <ele>16.48</ele>
        <time>2020-07-28T10:09:27Z</time>
      </trkpt>
      <trkpt lat="47.08242" lon="-1.26613">
        <ele>18.88</ele>
        <time>2020-07-28T10:09:47Z</time>
      </trkpt>
      <trkpt lat="47.08237" lon="-1.26615">
        <ele>19.36</ele>
        <time>2020-07-28T10:09:53Z</time>
      </trkpt>
      <trkpt lat="47.08218" lon="-1.26624">
        <ele>22.25</ele>
        <time>2020-07-28T10:10:10Z</time>
      </trkpt>
      <trkpt lat="47.08202" lon="-1.26634">
        <ele>23.21</ele>
        <time>2020-07-28T10:10:26Z</time>
      </trkpt>
      <trkpt lat="47.08199" lon="-1.2664">
        <ele>23.21</ele>
        <time>2020-07-28T10:10:30Z</time>
      </trkpt>
      <trkpt lat="47.0817" lon="-1.26647">
        <ele>24.17</ele>
        <time>2020-07-28T10:10:52Z</time>
      </trkpt>
      <trkpt lat="47.0815" lon="-1.26641">
        <ele>24.17</ele>
        <time>2020-07-28T10:11:09Z</time>
      </trkpt>
      <trkpt lat="47.08146" lon="-1.26637">
        <ele>24.17</ele>
        <time>2020-07-28T10:11:13Z</time>
      </trkpt>
      <trkpt lat="47.08139" lon="-1.26631">
        <ele>25.13</ele>
        <time>2020-07-28T10:11:21Z</time>
      </trkpt>
      <trkpt lat="47.08133" lon="-1.26602">
        <ele>25.61</ele>
        <time>2020-07-28T10:11:40Z</time>
      </trkpt>
      <trkpt lat="47.08132" lon="-1.26577">
        <ele>25.61</ele>
        <time>2020-07-28T10:11:55Z</time>
      </trkpt>
      <trkpt lat="47.08129" lon="-1.26563">
        <ele>24.17</ele>
        <time>2020-07-28T10:12:03Z</time>
      </trkpt>
      <trkpt lat="47.08125" lon="-1.26535">
        <ele>22.25</ele>
        <time>2020-07-28T10:12:17Z</time>
      </trkpt>
      <trkpt lat="47.0812" lon="-1.26526">
        <ele>21.77</ele>
        <time>2020-07-28T10:12:25Z</time>
      </trkpt>
      <trkpt lat="47.08114" lon="-1.26495">
        <ele>19.84</ele>
        <time>2020-07-28T10:12:43Z</time>
      </trkpt>
      <trkpt lat="47.08106" lon="-1.26484">
        <ele>19.36</ele>
        <time>2020-07-28T10:13:00Z</time>
      </trkpt>
      <trkpt lat="47.08098" lon="-1.26479">
        <ele>19.84</ele>
        <time>2020-07-28T10:13:08Z</time>
      </trkpt>
      <trkpt lat="47.08084" lon="-1.2647">
        <ele>16.96</ele>
        <time>2020-07-28T10:13:27Z</time>
      </trkpt>
      <trkpt lat="47.08077" lon="-1.26464">
        <ele>13.6</ele>
        <time>2020-07-28T10:13:39Z</time>
      </trkpt>
      <trkpt lat="47.08069" lon="-1.26464">
        <ele>12.15</ele>
        <time>2020-07-28T10:13:59Z</time>
      </trkpt>
      <trkpt lat="47.08061" lon="-1.26469">
        <ele>12.15</ele>
        <time>2020-07-28T10:14:12Z</time>
      </trkpt>
      <trkpt lat="47.08047" lon="-1.26468">
        <ele>12.15</ele>
        <time>2020-07-28T10:14:28Z</time>
      </trkpt>
      <trkpt lat="47.08032" lon="-1.26475">
        <ele>13.12</ele>
        <time>2020-07-28T10:14:47Z</time>
      </trkpt>
      <trkpt lat="47.08011" lon="-1.26481">
        <ele>15.04</ele>
        <time>2020-07-28T10:15:04Z</time>
      </trkpt>
      <trkpt lat="47.08013" lon="-1.26472">
        <ele>16</ele>
        <time>2020-07-28T10:15:19Z</time>
      </trkpt>
      <trkpt lat="47.08033" lon="-1.26451">
        <ele>17.44</ele>
        <time>2020-07-28T10:15:41Z</time>
      </trkpt>
      <trkpt lat="47.08041" lon="-1.26424">
        <ele>18.4</ele>
        <time>2020-07-28T10:15:57Z</time>
      </trkpt>
      <trkpt lat="47.08039" lon="-1.26409">
        <ele>16.48</ele>
        <time>2020-07-28T10:16:09Z</time>
      </trkpt>
      <trkpt lat="47.08034" lon="-1.2638">
        <ele>14.08</ele>
        <time>2020-07-28T10:16:26Z</time>
      </trkpt>
      <trkpt lat="47.08029" lon="-1.26364">
        <ele>12.63</ele>
        <time>2020-07-28T10:16:40Z</time>
      </trkpt>
      <trkpt lat="47.08028" lon="-1.26363">
        <ele>12.63</ele>
        <time>2020-07-28T10:16:41Z</time>
      </trkpt>
      <trkpt lat="47.08022" lon="-1.26357">
        <ele>11.67</ele>
        <time>2020-07-28T10:16:48Z</time>
      </trkpt>
      <trkpt lat="47.08018" lon="-1.26355">
        <ele>11.67</ele>
        <time>2020-07-28T10:16:51Z</time>
      </trkpt>
      <trkpt lat="47.08006" lon="-1.26349">
        <ele>11.19</ele>
        <time>2020-07-28T10:17:01Z</time>
      </trkpt>
      <trkpt lat="47.07997" lon="-1.26331">
        <ele>10.71</ele>
        <time>2020-07-28T10:17:16Z</time>
      </trkpt>
      <trkpt lat="47.07995" lon="-1.26321">
        <ele>10.23</ele>
        <time>2020-07-28T10:17:39Z</time>
      </trkpt>
      <trkpt lat="47.07993" lon="-1.26325">
        <ele>10.23</ele>
        <time>2020-07-28T10:18:15Z</time>
      </trkpt>
      <trkpt lat="47.07978" lon="-1.26325">
        <ele>9.75</ele>
        <time>2020-07-28T10:18:30Z</time>
      </trkpt>
      <trkpt lat="47.07967" lon="-1.26317">
        <ele>9.27</ele>
        <time>2020-07-28T10:18:46Z</time>
      </trkpt>
      <trkpt lat="47.07956" lon="-1.26312">
        <ele>9.27</ele>
        <time>2020-07-28T10:19:05Z</time>
      </trkpt>
      <trkpt lat="47.07939" lon="-1.26311">
        <ele>10.71</ele>
        <time>2020-07-28T10:19:20Z</time>
      </trkpt>
      <trkpt lat="47.07936" lon="-1.26311">
        <ele>10.71</ele>
        <time>2020-07-28T10:19:22Z</time>
      </trkpt>
      <trkpt lat="47.07934" lon="-1.26321">
        <ele>12.63</ele>
        <time>2020-07-28T10:19:36Z</time>
      </trkpt>
      <trkpt lat="47.0793" lon="-1.26323">
        <ele>13.6</ele>
        <time>2020-07-28T10:19:42Z</time>
      </trkpt>
      <trkpt lat="47.07926" lon="-1.26331">
        <ele>15.04</ele>
        <time>2020-07-28T10:19:57Z</time>
      </trkpt>
      <trkpt lat="47.0792" lon="-1.26335">
        <ele>16</ele>
        <time>2020-07-28T10:20:11Z</time>
      </trkpt>
      <trkpt lat="47.07916" lon="-1.26346">
        <ele>17.44</ele>
        <time>2020-07-28T10:20:24Z</time>
      </trkpt>
      <trkpt lat="47.07911" lon="-1.2635">
        <ele>18.88</ele>
        <time>2020-07-28T10:20:37Z</time>
      </trkpt>
      <trkpt lat="47.07907" lon="-1.26356">
        <ele>20.81</ele>
        <time>2020-07-28T10:20:46Z</time>
      </trkpt>
      <trkpt lat="47.07902" lon="-1.26359">
        <ele>22.73</ele>
        <time>2020-07-28T10:21:02Z</time>
      </trkpt>
      <trkpt lat="47.07897" lon="-1.26361">
        <ele>24.17</ele>
        <time>2020-07-28T10:21:12Z</time>
      </trkpt>
      <trkpt lat="47.07877" lon="-1.2637">
        <ele>25.13</ele>
        <time>2020-07-28T10:21:31Z</time>
      </trkpt>
      <trkpt lat="47.07855" lon="-1.26382">
        <ele>26.09</ele>
        <time>2020-07-28T10:21:50Z</time>
      </trkpt>
      <trkpt lat="47.07832" lon="-1.26394">
        <ele>27.05</ele>
        <time>2020-07-28T10:22:09Z</time>
      </trkpt>
      <trkpt lat="47.07809" lon="-1.26406">
        <ele>27.05</ele>
        <time>2020-07-28T10:22:29Z</time>
      </trkpt>
      <trkpt lat="47.07787" lon="-1.26416">
        <ele>27.53</ele>
        <time>2020-07-28T10:22:48Z</time>
      </trkpt>
      <trkpt lat="47.07763" lon="-1.2643">
        <ele>27.53</ele>
        <time>2020-07-28T10:23:08Z</time>
      </trkpt>
      <trkpt lat="47.07744" lon="-1.2644">
        <ele>28.02</ele>
        <time>2020-07-28T10:23:25Z</time>
      </trkpt>
      <trkpt lat="47.07724" lon="-1.26451">
        <ele>28.02</ele>
        <time>2020-07-28T10:23:44Z</time>
      </trkpt>
      <trkpt lat="47.07715" lon="-1.2646">
        <ele>27.05</ele>
        <time>2020-07-28T10:23:51Z</time>
      </trkpt>
      <trkpt lat="47.07708" lon="-1.26482">
        <ele>26.09</ele>
        <time>2020-07-28T10:24:05Z</time>
      </trkpt>
      <trkpt lat="47.07715" lon="-1.26511">
        <ele>25.13</ele>
        <time>2020-07-28T10:24:23Z</time>
      </trkpt>
      <trkpt lat="47.07718" lon="-1.26522">
        <ele>25.13</ele>
        <time>2020-07-28T10:24:30Z</time>
      </trkpt>
      <trkpt lat="47.07701" lon="-1.26532">
        <ele>25.61</ele>
        <time>2020-07-28T10:24:47Z</time>
      </trkpt>
      <trkpt lat="47.07678" lon="-1.26534">
        <ele>27.05</ele>
        <time>2020-07-28T10:25:06Z</time>
      </trkpt>
      <trkpt lat="47.07653" lon="-1.26533">
        <ele>28.98</ele>
        <time>2020-07-28T10:25:27Z</time>
      </trkpt>
      <trkpt lat="47.07627" lon="-1.2653">
        <ele>29.46</ele>
        <time>2020-07-28T10:25:48Z</time>
      </trkpt>
      <trkpt lat="47.07607" lon="-1.26529">
        <ele>29.94</ele>
        <time>2020-07-28T10:26:04Z</time>
      </trkpt>
      <trkpt lat="47.07581" lon="-1.26527">
        <ele>30.42</ele>
        <time>2020-07-28T10:26:25Z</time>
      </trkpt>
      <trkpt lat="47.07546" lon="-1.26526">
        <ele>30.9</ele>
        <time>2020-07-28T10:26:52Z</time>
      </trkpt>
      <trkpt lat="47.07519" lon="-1.26529">
        <ele>31.38</ele>
        <time>2020-07-28T10:27:14Z</time>
      </trkpt>
      <trkpt lat="47.0749" lon="-1.26531">
        <ele>29.94</ele>
        <time>2020-07-28T10:27:37Z</time>
      </trkpt>
      <trkpt lat="47.07462" lon="-1.26519">
        <ele>31.38</ele>
        <time>2020-07-28T10:28:00Z</time>
      </trkpt>
      <trkpt lat="47.07435" lon="-1.26504">
        <ele>31.38</ele>
        <time>2020-07-28T10:28:23Z</time>
      </trkpt>
      <trkpt lat="47.07416" lon="-1.26514">
        <ele>29.94</ele>
        <time>2020-07-28T10:28:41Z</time>
      </trkpt>
      <trkpt lat="47.07402" lon="-1.26531">
        <ele>29.94</ele>
        <time>2020-07-28T10:28:56Z</time>
      </trkpt>
      <trkpt lat="47.07383" lon="-1.26552">
        <ele>29.94</ele>
        <time>2020-07-28T10:29:15Z</time>
      </trkpt>
      <trkpt lat="47.07357" lon="-1.26573">
        <ele>29.94</ele>
        <time>2020-07-28T10:29:39Z</time>
      </trkpt>
      <trkpt lat="47.07335" lon="-1.2659">
        <ele>31.38</ele>
        <time>2020-07-28T10:29:59Z</time>
      </trkpt>
      <trkpt lat="47.07313" lon="-1.2661">
        <ele>31.86</ele>
        <time>2020-07-28T10:30:20Z</time>
      </trkpt>
      <trkpt lat="47.07291" lon="-1.26633">
        <ele>30.42</ele>
        <time>2020-07-28T10:30:43Z</time>
      </trkpt>
      <trkpt lat="47.0727" lon="-1.26653">
        <ele>30.42</ele>
        <time>2020-07-28T10:31:04Z</time>
      </trkpt>
      <trkpt lat="47.07254" lon="-1.26673">
        <ele>29.94</ele>
        <time>2020-07-28T10:31:21Z</time>
      </trkpt>
      <trkpt lat="47.07237" lon="-1.26694">
        <ele>29.94</ele>
        <time>2020-07-28T10:31:40Z</time>
      </trkpt>
      <trkpt lat="47.0722" lon="-1.26712">
        <ele>30.42</ele>
        <time>2020-07-28T10:31:57Z</time>
      </trkpt>
      <trkpt lat="47.07215" lon="-1.26716">
        <ele>30.42</ele>
        <time>2020-07-28T10:32:02Z</time>
      </trkpt>
      <trkpt lat="47.07211" lon="-1.26718">
        <ele>30.42</ele>
        <time>2020-07-28T10:32:06Z</time>
      </trkpt>
      <trkpt lat="47.07193" lon="-1.26727">
        <ele>30.42</ele>
        <time>2020-07-28T10:32:21Z</time>
      </trkpt>
      <trkpt lat="47.07177" lon="-1.26736">
        <ele>30.42</ele>
        <time>2020-07-28T10:32:36Z</time>
      </trkpt>
      <trkpt lat="47.07175" lon="-1.26737">
        <ele>30.42</ele>
        <time>2020-07-28T10:32:38Z</time>
      </trkpt>
      <trkpt lat="47.07154" lon="-1.26738">
        <ele>31.86</ele>
        <time>2020-07-28T10:32:55Z</time>
      </trkpt>
      <trkpt lat="47.07133" lon="-1.26743">
        <ele>31.86</ele>
        <time>2020-07-28T10:33:10Z</time>
      </trkpt>
      <trkpt lat="47.07114" lon="-1.26757">
        <ele>32.34</ele>
        <time>2020-07-28T10:33:27Z</time>
      </trkpt>
      <trkpt lat="47.07096" lon="-1.26773">
        <ele>32.82</ele>
        <time>2020-07-28T10:33:44Z</time>
      </trkpt>
      <trkpt lat="47.07077" lon="-1.268">
        <ele>33.3</ele>
        <time>2020-07-28T10:34:04Z</time>
      </trkpt>
      <trkpt lat="47.07061" lon="-1.26822">
        <ele>33.78</ele>
        <time>2020-07-28T10:34:22Z</time>
      </trkpt>
      <trkpt lat="47.07057" lon="-1.26827">
        <ele>33.78</ele>
        <time>2020-07-28T10:34:26Z</time>
      </trkpt>
      <trkpt lat="47.07052" lon="-1.26827">
        <ele>33.78</ele>
        <time>2020-07-28T10:34:30Z</time>
      </trkpt>
      <trkpt lat="47.07023" lon="-1.26818">
        <ele>33.78</ele>
        <time>2020-07-28T10:34:53Z</time>
      </trkpt>
      <trkpt lat="47.07002" lon="-1.26813">
        <ele>33.78</ele>
        <time>2020-07-28T10:35:10Z</time>
      </trkpt>
      <trkpt lat="47.0698" lon="-1.26808">
        <ele>34.26</ele>
        <time>2020-07-28T10:35:27Z</time>
      </trkpt>
      <trkpt lat="47.06965" lon="-1.26793">
        <ele>35.23</ele>
        <time>2020-07-28T10:35:45Z</time>
      </trkpt>
      <trkpt lat="47.06964" lon="-1.2679">
        <ele>35.23</ele>
        <time>2020-07-28T10:35:48Z</time>
      </trkpt>
      <trkpt lat="47.06961" lon="-1.26781">
        <ele>35.23</ele>
        <time>2020-07-28T10:35:53Z</time>
      </trkpt>
      <trkpt lat="47.06947" lon="-1.26751">
        <ele>35.23</ele>
        <time>2020-07-28T10:36:13Z</time>
      </trkpt>
      <trkpt lat="47.06934" lon="-1.26719">
        <ele>35.71</ele>
        <time>2020-07-28T10:36:33Z</time>
      </trkpt>
      <trkpt lat="47.06925" lon="-1.26694">
        <ele>36.67</ele>
        <time>2020-07-28T10:36:50Z</time>
      </trkpt>
      <trkpt lat="47.06914" lon="-1.26663">
        <ele>36.67</ele>
        <time>2020-07-28T10:37:09Z</time>
      </trkpt>
      <trkpt lat="47.06903" lon="-1.26638">
        <ele>36.67</ele>
        <time>2020-07-28T10:37:26Z</time>
      </trkpt>
      <trkpt lat="47.06891" lon="-1.26619">
        <ele>37.15</ele>
        <time>2020-07-28T10:37:43Z</time>
      </trkpt>
      <trkpt lat="47.06873" lon="-1.26596">
        <ele>37.15</ele>
        <time>2020-07-28T10:38:03Z</time>
      </trkpt>
      <trkpt lat="47.06857" lon="-1.26568">
        <ele>38.11</ele>
        <time>2020-07-28T10:38:23Z</time>
      </trkpt>
      <trkpt lat="47.06839" lon="-1.26546">
        <ele>38.59</ele>
        <time>2020-07-28T10:38:43Z</time>
      </trkpt>
      <trkpt lat="47.06818" lon="-1.26523">
        <ele>38.11</ele>
        <time>2020-07-28T10:39:04Z</time>
      </trkpt>
      <trkpt lat="47.06796" lon="-1.26495">
        <ele>38.11</ele>
        <time>2020-07-28T10:39:28Z</time>
      </trkpt>
      <trkpt lat="47.0677" lon="-1.26472">
        <ele>38.11</ele>
        <time>2020-07-28T10:39:50Z</time>
      </trkpt>
      <trkpt lat="47.0675" lon="-1.26451">
        <ele>37.63</ele>
        <time>2020-07-28T10:40:09Z</time>
      </trkpt>
      <trkpt lat="47.06733" lon="-1.2643">
        <ele>37.63</ele>
        <time>2020-07-28T10:40:26Z</time>
      </trkpt>
      <trkpt lat="47.0672" lon="-1.26413">
        <ele>37.63</ele>
        <time>2020-07-28T10:40:40Z</time>
      </trkpt>
      <trkpt lat="47.06719" lon="-1.2641">
        <ele>37.63</ele>
        <time>2020-07-28T10:40:42Z</time>
      </trkpt>
      <trkpt lat="47.06708" lon="-1.26391">
        <ele>37.63</ele>
        <time>2020-07-28T10:40:56Z</time>
      </trkpt>
      <trkpt lat="47.06692" lon="-1.26367">
        <ele>37.63</ele>
        <time>2020-07-28T10:41:13Z</time>
      </trkpt>
      <trkpt lat="47.06682" lon="-1.26354">
        <ele>37.63</ele>
        <time>2020-07-28T10:41:25Z</time>
      </trkpt>
      <trkpt lat="47.06672" lon="-1.26344">
        <ele>37.63</ele>
        <time>2020-07-28T10:41:32Z</time>
      </trkpt>
      <trkpt lat="47.0667" lon="-1.26344">
        <ele>37.63</ele>
        <time>2020-07-28T10:41:33Z</time>
      </trkpt>
      <trkpt lat="47.06669" lon="-1.26343">
        <ele>37.63</ele>
        <time>2020-07-28T10:41:34Z</time>
      </trkpt>
      <trkpt lat="47.0665" lon="-1.26357">
        <ele>37.63</ele>
        <time>2020-07-28T10:41:52Z</time>
      </trkpt>
      <trkpt lat="47.06631" lon="-1.26377">
        <ele>37.63</ele>
        <time>2020-07-28T10:42:10Z</time>
      </trkpt>
      <trkpt lat="47.06616" lon="-1.26396">
        <ele>37.63</ele>
        <time>2020-07-28T10:42:24Z</time>
      </trkpt>
      <trkpt lat="47.06599" lon="-1.26414">
        <ele>39.55</ele>
        <time>2020-07-28T10:42:41Z</time>
      </trkpt>
      <trkpt lat="47.06583" lon="-1.2643">
        <ele>39.55</ele>
        <time>2020-07-28T10:42:58Z</time>
      </trkpt>
      <trkpt lat="47.0657" lon="-1.26447">
        <ele>40.51</ele>
        <time>2020-07-28T10:43:13Z</time>
      </trkpt>
      <trkpt lat="47.0655" lon="-1.26464">
        <ele>40.51</ele>
        <time>2020-07-28T10:43:29Z</time>
      </trkpt>
      <trkpt lat="47.06523" lon="-1.26455">
        <ele>40.51</ele>
        <time>2020-07-28T10:43:50Z</time>
      </trkpt>
      <trkpt lat="47.06505" lon="-1.26439">
        <ele>40.99</ele>
        <time>2020-07-28T10:44:08Z</time>
      </trkpt>
      <trkpt lat="47.06485" lon="-1.2642">
        <ele>40.99</ele>
        <time>2020-07-28T10:44:25Z</time>
      </trkpt>
      <trkpt lat="47.06467" lon="-1.26408">
        <ele>39.55</ele>
        <time>2020-07-28T10:44:41Z</time>
      </trkpt>
      <trkpt lat="47.06448" lon="-1.26391">
        <ele>39.07</ele>
        <time>2020-07-28T10:45:00Z</time>
      </trkpt>
      <trkpt lat="47.06435" lon="-1.2637">
        <ele>39.07</ele>
        <time>2020-07-28T10:45:16Z</time>
      </trkpt>
      <trkpt lat="47.0643" lon="-1.26364">
        <ele>38.59</ele>
        <time>2020-07-28T10:45:21Z</time>
      </trkpt>
      <trkpt lat="47.06426" lon="-1.26363">
        <ele>38.59</ele>
        <time>2020-07-28T10:45:24Z</time>
      </trkpt>
      <trkpt lat="47.06419" lon="-1.26371">
        <ele>38.59</ele>
        <time>2020-07-28T10:45:33Z</time>
      </trkpt>
      <trkpt lat="47.0642" lon="-1.26381">
        <ele>38.59</ele>
        <time>2020-07-28T10:45:38Z</time>
      </trkpt>
      <trkpt lat="47.06418" lon="-1.26399">
        <ele>38.59</ele>
        <time>2020-07-28T10:45:47Z</time>
      </trkpt>
      <trkpt lat="47.06421" lon="-1.26437">
        <ele>38.59</ele>
        <time>2020-07-28T10:46:07Z</time>
      </trkpt>
      <trkpt lat="47.06419" lon="-1.26474">
        <ele>38.59</ele>
        <time>2020-07-28T10:46:26Z</time>
      </trkpt>
      <trkpt lat="47.06411" lon="-1.26503">
        <ele>38.59</ele>
        <time>2020-07-28T10:46:43Z</time>
      </trkpt>
      <trkpt lat="47.06405" lon="-1.26536">
        <ele>38.59</ele>
        <time>2020-07-28T10:47:01Z</time>
      </trkpt>
      <trkpt lat="47.06396" lon="-1.26571">
        <ele>38.59</ele>
        <time>2020-07-28T10:47:20Z</time>
      </trkpt>
      <trkpt lat="47.0639" lon="-1.266">
        <ele>38.59</ele>
        <time>2020-07-28T10:47:36Z</time>
      </trkpt>
      <trkpt lat="47.06386" lon="-1.26627">
        <ele>38.59</ele>
        <time>2020-07-28T10:47:52Z</time>
      </trkpt>
      <trkpt lat="47.06384" lon="-1.2663">
        <ele>38.59</ele>
        <time>2020-07-28T10:47:54Z</time>
      </trkpt>
      <trkpt lat="47.0638" lon="-1.26663">
        <ele>38.11</ele>
        <time>2020-07-28T10:48:14Z</time>
      </trkpt>
      <trkpt lat="47.06373" lon="-1.26692">
        <ele>38.11</ele>
        <time>2020-07-28T10:48:30Z</time>
      </trkpt>
      <trkpt lat="47.06355" lon="-1.26701">
        <ele>37.63</ele>
        <time>2020-07-28T10:48:48Z</time>
      </trkpt>
      <trkpt lat="47.06329" lon="-1.26704">
        <ele>37.63</ele>
        <time>2020-07-28T10:49:08Z</time>
      </trkpt>
      <trkpt lat="47.06305" lon="-1.26705">
        <ele>36.67</ele>
        <time>2020-07-28T10:49:28Z</time>
      </trkpt>
      <trkpt lat="47.06284" lon="-1.26703">
        <ele>36.19</ele>
        <time>2020-07-28T10:49:45Z</time>
      </trkpt>
      <trkpt lat="47.06272" lon="-1.26701">
        <ele>36.19</ele>
        <time>2020-07-28T10:49:57Z</time>
      </trkpt>
      <trkpt lat="47.06254" lon="-1.267">
        <ele>35.71</ele>
        <time>2020-07-28T10:50:11Z</time>
      </trkpt>
      <trkpt lat="47.06232" lon="-1.26699">
        <ele>35.71</ele>
        <time>2020-07-28T10:50:27Z</time>
      </trkpt>
      <trkpt lat="47.06208" lon="-1.26704">
        <ele>35.23</ele>
        <time>2020-07-28T10:50:45Z</time>
      </trkpt>
      <trkpt lat="47.06187" lon="-1.26706">
        <ele>34.74</ele>
        <time>2020-07-28T10:51:03Z</time>
      </trkpt>
      <trkpt lat="47.06167" lon="-1.26698">
        <ele>33.78</ele>
        <time>2020-07-28T10:51:20Z</time>
      </trkpt>
      <trkpt lat="47.06157" lon="-1.26672">
        <ele>33.3</ele>
        <time>2020-07-28T10:51:39Z</time>
      </trkpt>
      <trkpt lat="47.06145" lon="-1.26667">
        <ele>32.82</ele>
        <time>2020-07-28T10:51:51Z</time>
      </trkpt>
      <trkpt lat="47.06122" lon="-1.26658">
        <ele>32.34</ele>
        <time>2020-07-28T10:52:08Z</time>
      </trkpt>
      <trkpt lat="47.06101" lon="-1.26657">
        <ele>32.34</ele>
        <time>2020-07-28T10:52:26Z</time>
      </trkpt>
      <trkpt lat="47.06086" lon="-1.26654">
        <ele>31.38</ele>
        <time>2020-07-28T10:52:41Z</time>
      </trkpt>
      <trkpt lat="47.06086" lon="-1.26653">
        <ele>30.9</ele>
        <time>2020-07-28T10:52:42Z</time>
      </trkpt>
      <trkpt lat="47.06068" lon="-1.26639">
        <ele>30.9</ele>
        <time>2020-07-28T10:52:59Z</time>
      </trkpt>
      <trkpt lat="47.06058" lon="-1.26637">
        <ele>30.42</ele>
        <time>2020-07-28T10:53:08Z</time>
      </trkpt>
      <trkpt lat="47.06032" lon="-1.26623">
        <ele>29.46</ele>
        <time>2020-07-28T10:53:28Z</time>
      </trkpt>
      <trkpt lat="47.06027" lon="-1.26614">
        <ele>29.46</ele>
        <time>2020-07-28T10:53:36Z</time>
      </trkpt>
      <trkpt lat="47.06027" lon="-1.26607">
        <ele>29.46</ele>
        <time>2020-07-28T10:53:40Z</time>
      </trkpt>
      <trkpt lat="47.06022" lon="-1.26581">
        <ele>30.42</ele>
        <time>2020-07-28T10:53:56Z</time>
      </trkpt>
      <trkpt lat="47.0602" lon="-1.26566">
        <ele>29.46</ele>
        <time>2020-07-28T10:54:07Z</time>
      </trkpt>
      <trkpt lat="47.06025" lon="-1.26544">
        <ele>26.57</ele>
        <time>2020-07-28T10:54:23Z</time>
      </trkpt>
      <trkpt lat="47.06036" lon="-1.26533">
        <ele>26.57</ele>
        <time>2020-07-28T10:54:36Z</time>
      </trkpt>
      <trkpt lat="47.06047" lon="-1.26505">
        <ele>26.57</ele>
        <time>2020-07-28T10:54:52Z</time>
      </trkpt>
      <trkpt lat="47.06059" lon="-1.26484">
        <ele>26.57</ele>
        <time>2020-07-28T10:55:08Z</time>
      </trkpt>
      <trkpt lat="47.06061" lon="-1.26478">
        <ele>26.57</ele>
        <time>2020-07-28T10:55:12Z</time>
      </trkpt>
      <trkpt lat="47.06066" lon="-1.26467">
        <ele>26.57</ele>
        <time>2020-07-28T10:55:19Z</time>
      </trkpt>
      <trkpt lat="47.06069" lon="-1.26458">
        <ele>26.57</ele>
        <time>2020-07-28T10:55:24Z</time>
      </trkpt>
      <trkpt lat="47.06076" lon="-1.26432">
        <ele>26.57</ele>
        <time>2020-07-28T10:55:45Z</time>
      </trkpt>
      <trkpt lat="47.06076" lon="-1.26426">
        <ele>26.57</ele>
        <time>2020-07-28T10:55:48Z</time>
      </trkpt>
      <trkpt lat="47.06075" lon="-1.26418">
        <ele>26.57</ele>
        <time>2020-07-28T10:55:52Z</time>
      </trkpt>
      <trkpt lat="47.06078" lon="-1.26393">
        <ele>26.57</ele>
        <time>2020-07-28T10:56:08Z</time>
      </trkpt>
      <trkpt lat="47.06082" lon="-1.26384">
        <ele>26.57</ele>
        <time>2020-07-28T10:56:27Z</time>
      </trkpt>
      <trkpt lat="47.06089" lon="-1.26369">
        <ele>28.98</ele>
        <time>2020-07-28T10:56:50Z</time>
      </trkpt>
      <trkpt lat="47.06094" lon="-1.2636">
        <ele>29.94</ele>
        <time>2020-07-28T10:57:12Z</time>
      </trkpt>
      <trkpt lat="47.061" lon="-1.26354">
        <ele>30.42</ele>
        <time>2020-07-28T10:57:28Z</time>
      </trkpt>
      <trkpt lat="47.06103" lon="-1.26338">
        <ele>27.05</ele>
        <time>2020-07-28T10:57:42Z</time>
      </trkpt>
      <trkpt lat="47.06116" lon="-1.26324">
        <ele>26.57</ele>
        <time>2020-07-28T10:57:57Z</time>
      </trkpt>
      <trkpt lat="47.06128" lon="-1.26307">
        <ele>27.05</ele>
        <time>2020-07-28T10:58:12Z</time>
      </trkpt>
      <trkpt lat="47.06143" lon="-1.26298">
        <ele>26.09</ele>
        <time>2020-07-28T10:58:26Z</time>
      </trkpt>
      <trkpt lat="47.06156" lon="-1.263">
        <ele>26.09</ele>
        <time>2020-07-28T10:58:38Z</time>
      </trkpt>
      <trkpt lat="47.06159" lon="-1.26299">
        <ele>26.09</ele>
        <time>2020-07-28T10:58:41Z</time>
      </trkpt>
      <trkpt lat="47.06179" lon="-1.26296">
        <ele>26.09</ele>
        <time>2020-07-28T10:59:00Z</time>
      </trkpt>
      <trkpt lat="47.06198" lon="-1.26271">
        <ele>26.09</ele>
        <time>2020-07-28T10:59:17Z</time>
      </trkpt>
      <trkpt lat="47.06207" lon="-1.2626">
        <ele>25.61</ele>
        <time>2020-07-28T10:59:28Z</time>
      </trkpt>
      <trkpt lat="47.06218" lon="-1.2625">
        <ele>25.61</ele>
        <time>2020-07-28T10:59:41Z</time>
      </trkpt>
      <trkpt lat="47.06224" lon="-1.26246">
        <ele>27.05</ele>
        <time>2020-07-28T10:59:47Z</time>
      </trkpt>
      <trkpt lat="47.06233" lon="-1.26233">
        <ele>27.53</ele>
        <time>2020-07-28T11:00:00Z</time>
      </trkpt>
      <trkpt lat="47.06239" lon="-1.26214">
        <ele>28.02</ele>
        <time>2020-07-28T11:00:11Z</time>
      </trkpt>
      <trkpt lat="47.06234" lon="-1.26193">
        <ele>27.05</ele>
        <time>2020-07-28T11:00:26Z</time>
      </trkpt>
      <trkpt lat="47.06233" lon="-1.2617">
        <ele>26.09</ele>
        <time>2020-07-28T11:00:40Z</time>
      </trkpt>
      <trkpt lat="47.06234" lon="-1.26165">
        <ele>25.61</ele>
        <time>2020-07-28T11:00:43Z</time>
      </trkpt>
      <trkpt lat="47.06234" lon="-1.26117">
        <ele>25.13</ele>
        <time>2020-07-28T11:01:05Z</time>
      </trkpt>
      <trkpt lat="47.06234" lon="-1.26094">
        <ele>24.65</ele>
        <time>2020-07-28T11:01:19Z</time>
      </trkpt>
      <trkpt lat="47.06235" lon="-1.26086">
        <ele>24.65</ele>
        <time>2020-07-28T11:01:23Z</time>
      </trkpt>
      <trkpt lat="47.06225" lon="-1.26056">
        <ele>26.57</ele>
        <time>2020-07-28T11:01:44Z</time>
      </trkpt>
      <trkpt lat="47.06216" lon="-1.26051">
        <ele>28.02</ele>
        <time>2020-07-28T11:01:53Z</time>
      </trkpt>
      <trkpt lat="47.06207" lon="-1.26054">
        <ele>29.46</ele>
        <time>2020-07-28T11:02:02Z</time>
      </trkpt>
      <trkpt lat="47.06202" lon="-1.26067">
        <ele>30.42</ele>
        <time>2020-07-28T11:02:12Z</time>
      </trkpt>
      <trkpt lat="47.06197" lon="-1.26066">
        <ele>30.42</ele>
        <time>2020-07-28T11:02:16Z</time>
      </trkpt>
      <trkpt lat="47.06192" lon="-1.26058">
        <ele>30.9</ele>
        <time>2020-07-28T11:02:23Z</time>
      </trkpt>
      <trkpt lat="47.06187" lon="-1.26059">
        <ele>31.86</ele>
        <time>2020-07-28T11:02:28Z</time>
      </trkpt>
      <trkpt lat="47.06177" lon="-1.2606">
        <ele>33.78</ele>
        <time>2020-07-28T11:02:39Z</time>
      </trkpt>
      <trkpt lat="47.06171" lon="-1.2605">
        <ele>33.78</ele>
        <time>2020-07-28T11:02:47Z</time>
      </trkpt>
      <trkpt lat="47.06159" lon="-1.26036">
        <ele>35.71</ele>
        <time>2020-07-28T11:03:04Z</time>
      </trkpt>
      <trkpt lat="47.06154" lon="-1.26025">
        <ele>36.67</ele>
        <time>2020-07-28T11:03:19Z</time>
      </trkpt>
      <trkpt lat="47.06152" lon="-1.2601">
        <ele>37.63</ele>
        <time>2020-07-28T11:03:31Z</time>
      </trkpt>
      <trkpt lat="47.06154" lon="-1.25979">
        <ele>38.11</ele>
        <time>2020-07-28T11:03:49Z</time>
      </trkpt>
      <trkpt lat="47.06164" lon="-1.25948">
        <ele>38.59</ele>
        <time>2020-07-28T11:04:07Z</time>
      </trkpt>
      <trkpt lat="47.06167" lon="-1.25921">
        <ele>38.59</ele>
        <time>2020-07-28T11:04:23Z</time>
      </trkpt>
      <trkpt lat="47.06176" lon="-1.25901">
        <ele>38.59</ele>
        <time>2020-07-28T11:04:37Z</time>
      </trkpt>
      <trkpt lat="47.06176" lon="-1.25889">
        <ele>38.59</ele>
        <time>2020-07-28T11:04:43Z</time>
      </trkpt>
      <trkpt lat="47.06172" lon="-1.25868">
        <ele>39.07</ele>
        <time>2020-07-28T11:04:56Z</time>
      </trkpt>
      <trkpt lat="47.0616" lon="-1.25845">
        <ele>40.03</ele>
        <time>2020-07-28T11:05:14Z</time>
      </trkpt>
      <trkpt lat="47.06152" lon="-1.25819">
        <ele>40.03</ele>
        <time>2020-07-28T11:05:32Z</time>
      </trkpt>
      <trkpt lat="47.06157" lon="-1.25803">
        <ele>40.03</ele>
        <time>2020-07-28T11:05:42Z</time>
      </trkpt>
      <trkpt lat="47.06179" lon="-1.25801">
        <ele>38.11</ele>
        <time>2020-07-28T11:06:01Z</time>
      </trkpt>
      <trkpt lat="47.06197" lon="-1.25792">
        <ele>37.63</ele>
        <time>2020-07-28T11:06:16Z</time>
      </trkpt>
      <trkpt lat="47.06202" lon="-1.25786">
        <ele>37.63</ele>
        <time>2020-07-28T11:06:24Z</time>
      </trkpt>
      <trkpt lat="47.06215" lon="-1.2576">
        <ele>37.63</ele>
        <time>2020-07-28T11:06:39Z</time>
      </trkpt>
      <trkpt lat="47.06224" lon="-1.25735">
        <ele>37.63</ele>
        <time>2020-07-28T11:06:57Z</time>
      </trkpt>
      <trkpt lat="47.06236" lon="-1.25713">
        <ele>38.59</ele>
        <time>2020-07-28T11:07:11Z</time>
      </trkpt>
      <trkpt lat="47.06245" lon="-1.25691">
        <ele>39.07</ele>
        <time>2020-07-28T11:07:26Z</time>
      </trkpt>
      <trkpt lat="47.06251" lon="-1.25679">
        <ele>39.07</ele>
        <time>2020-07-28T11:07:36Z</time>
      </trkpt>
      <trkpt lat="47.06252" lon="-1.25679">
        <ele>39.07</ele>
        <time>2020-07-28T11:07:37Z</time>
      </trkpt>
      <trkpt lat="47.06253" lon="-1.25679">
        <ele>39.07</ele>
        <time>2020-07-28T11:07:38Z</time>
      </trkpt>
      <trkpt lat="47.06256" lon="-1.25678">
        <ele>39.07</ele>
        <time>2020-07-28T11:07:41Z</time>
      </trkpt>
      <trkpt lat="47.06257" lon="-1.25676">
        <ele>39.07</ele>
        <time>2020-07-28T11:07:42Z</time>
      </trkpt>
      <trkpt lat="47.06258" lon="-1.25674">
        <ele>39.07</ele>
        <time>2020-07-28T11:07:43Z</time>
      </trkpt>
      <trkpt lat="47.06259" lon="-1.25672">
        <ele>39.55</ele>
        <time>2020-07-28T11:07:44Z</time>
      </trkpt>
      <trkpt lat="47.0626" lon="-1.2567">
        <ele>39.55</ele>
        <time>2020-07-28T11:07:45Z</time>
      </trkpt>
      <trkpt lat="47.0626" lon="-1.25669">
        <ele>39.55</ele>
        <time>2020-07-28T11:07:46Z</time>
      </trkpt>
      <trkpt lat="47.06273" lon="-1.25644">
        <ele>40.03</ele>
        <time>2020-07-28T11:08:04Z</time>
      </trkpt>
      <trkpt lat="47.06274" lon="-1.25643">
        <ele>40.03</ele>
        <time>2020-07-28T11:08:05Z</time>
      </trkpt>
      <trkpt lat="47.06287" lon="-1.25628">
        <ele>40.03</ele>
        <time>2020-07-28T11:08:18Z</time>
      </trkpt>
      <trkpt lat="47.06301" lon="-1.25607">
        <ele>40.03</ele>
        <time>2020-07-28T11:08:35Z</time>
      </trkpt>
      <trkpt lat="47.06314" lon="-1.25592">
        <ele>40.03</ele>
        <time>2020-07-28T11:08:50Z</time>
      </trkpt>
      <trkpt lat="47.0633" lon="-1.25574">
        <ele>40.03</ele>
        <time>2020-07-28T11:09:05Z</time>
      </trkpt>
      <trkpt lat="47.06344" lon="-1.25555">
        <ele>40.99</ele>
        <time>2020-07-28T11:09:21Z</time>
      </trkpt>
      <trkpt lat="47.06356" lon="-1.25543">
        <ele>40.99</ele>
        <time>2020-07-28T11:09:34Z</time>
      </trkpt>
      <trkpt lat="47.06366" lon="-1.25524">
        <ele>40.99</ele>
        <time>2020-07-28T11:09:49Z</time>
      </trkpt>
      <trkpt lat="47.06374" lon="-1.2551">
        <ele>40.99</ele>
        <time>2020-07-28T11:10:03Z</time>
      </trkpt>
      <trkpt lat="47.06387" lon="-1.25498">
        <ele>40.51</ele>
        <time>2020-07-28T11:10:18Z</time>
      </trkpt>
      <trkpt lat="47.06391" lon="-1.25496">
        <ele>40.51</ele>
        <time>2020-07-28T11:10:20Z</time>
      </trkpt>
      <trkpt lat="47.06412" lon="-1.25491">
        <ele>40.51</ele>
        <time>2020-07-28T11:10:34Z</time>
      </trkpt>
      <trkpt lat="47.06429" lon="-1.25483">
        <ele>40.51</ele>
        <time>2020-07-28T11:10:47Z</time>
      </trkpt>
      <trkpt lat="47.06453" lon="-1.25475">
        <ele>40.51</ele>
        <time>2020-07-28T11:11:05Z</time>
      </trkpt>
      <trkpt lat="47.06472" lon="-1.25468">
        <ele>40.51</ele>
        <time>2020-07-28T11:11:21Z</time>
      </trkpt>
      <trkpt lat="47.06489" lon="-1.25463">
        <ele>40.51</ele>
        <time>2020-07-28T11:11:36Z</time>
      </trkpt>
      <trkpt lat="47.06509" lon="-1.25455">
        <ele>40.99</ele>
        <time>2020-07-28T11:11:52Z</time>
      </trkpt>
      <trkpt lat="47.06526" lon="-1.25449">
        <ele>40.99</ele>
        <time>2020-07-28T11:12:06Z</time>
      </trkpt>
      <trkpt lat="47.06544" lon="-1.25439">
        <ele>40.99</ele>
        <time>2020-07-28T11:12:21Z</time>
      </trkpt>
      <trkpt lat="47.06543" lon="-1.25411">
        <ele>41.47</ele>
        <time>2020-07-28T11:12:36Z</time>
      </trkpt>
      <trkpt lat="47.06546" lon="-1.25394">
        <ele>41.47</ele>
        <time>2020-07-28T11:12:54Z</time>
      </trkpt>
    </trkseg>
  </trk>
</gpx>